<?xml version="1.0" encoding="UTF-8" standalone="no" ?>
<gpx xmlns="http://www.topografix.com/GPX/1/1" xmlns:xsi="http://www.w3.org/2001/XMLSchema-instance" xsi:schemaLocation="http://www.topografix.com/GPX/1/1 http://www.topografix.com/GPX/1/1/gpx.xsd" version="1.1" creator="VisuGPX - https://www.visugpx.com">
  <metadata>
    <name>CAMINO PRIMITIVO &quot;BERDUCEDO -GRANDAS DE SALIME&quot;</name>
    <desc><![CDATA[Trace GPS interrompue avant le passage du barrage de Grandas de Salimé, panne de gps ou mauvaise manipulation? Cependant le tracé du parcours final ne présente pas de difficulté puisqu'après la traversée du barrage, il suit la route qui remonte vers Grandas de Salimé et à 2 km de l'arrivée il emprunte un chemin parfaitement balisé gravissant la foret avant de déboucher à l'entrée du village. Le kilkometrage totale de l'étape sera de 20 km environ, et une durée de prés de 5h.]]></desc>
  </metadata>
  <trk>
    <name><![CDATA[2016-07-10-01]]></name>
    <trkseg>
      <trkpt lat="43.23523" lon="-6.76631">
        <ele>926.6</ele>
        <time>2016-07-10T05:02:24Z</time>
      </trkpt>
      <trkpt lat="43.23523" lon="-6.76631">
        <ele>926</ele>
        <time>2016-07-10T05:02:23Z</time>
      </trkpt>
      <trkpt lat="43.23515" lon="-6.76641">
        <ele>926</ele>
        <time>2016-07-10T05:02:33Z</time>
      </trkpt>
      <trkpt lat="43.23503" lon="-6.76653">
        <ele>926</ele>
        <time>2016-07-10T05:02:45Z</time>
      </trkpt>
      <trkpt lat="43.23493" lon="-6.7666">
        <ele>925</ele>
        <time>2016-07-10T05:02:53Z</time>
      </trkpt>
      <trkpt lat="43.23483" lon="-6.76667">
        <ele>924</ele>
        <time>2016-07-10T05:03:01Z</time>
      </trkpt>
      <trkpt lat="43.23474" lon="-6.76671">
        <ele>924</ele>
        <time>2016-07-10T05:03:07Z</time>
      </trkpt>
      <trkpt lat="43.23464" lon="-6.76675">
        <ele>923</ele>
        <time>2016-07-10T05:03:13Z</time>
      </trkpt>
      <trkpt lat="43.23452" lon="-6.76681">
        <ele>922</ele>
        <time>2016-07-10T05:03:21Z</time>
      </trkpt>
      <trkpt lat="43.2344" lon="-6.76685">
        <ele>922</ele>
        <time>2016-07-10T05:03:29Z</time>
      </trkpt>
      <trkpt lat="43.23429" lon="-6.76688">
        <ele>921</ele>
        <time>2016-07-10T05:03:37Z</time>
      </trkpt>
      <trkpt lat="43.23416" lon="-6.76696">
        <ele>921</ele>
        <time>2016-07-10T05:03:45Z</time>
      </trkpt>
      <trkpt lat="43.23405" lon="-6.76703">
        <ele>920</ele>
        <time>2016-07-10T05:03:53Z</time>
      </trkpt>
      <trkpt lat="43.23393" lon="-6.7671">
        <ele>918</ele>
        <time>2016-07-10T05:04:01Z</time>
      </trkpt>
      <trkpt lat="43.23382" lon="-6.76717">
        <ele>918</ele>
        <time>2016-07-10T05:04:09Z</time>
      </trkpt>
      <trkpt lat="43.2337" lon="-6.76719">
        <ele>917</ele>
        <time>2016-07-10T05:04:17Z</time>
      </trkpt>
      <trkpt lat="43.23359" lon="-6.76723">
        <ele>916</ele>
        <time>2016-07-10T05:04:25Z</time>
      </trkpt>
      <trkpt lat="43.23347" lon="-6.76727">
        <ele>916</ele>
        <time>2016-07-10T05:04:33Z</time>
      </trkpt>
      <trkpt lat="43.23337" lon="-6.76731">
        <ele>916</ele>
        <time>2016-07-10T05:04:41Z</time>
      </trkpt>
      <trkpt lat="43.23327" lon="-6.76736">
        <ele>916</ele>
        <time>2016-07-10T05:04:49Z</time>
      </trkpt>
      <trkpt lat="43.23316" lon="-6.76737">
        <ele>915</ele>
        <time>2016-07-10T05:04:57Z</time>
      </trkpt>
      <trkpt lat="43.23307" lon="-6.76743">
        <ele>915</ele>
        <time>2016-07-10T05:05:05Z</time>
      </trkpt>
      <trkpt lat="43.23304" lon="-6.76757">
        <ele>915</ele>
        <time>2016-07-10T05:05:13Z</time>
      </trkpt>
      <trkpt lat="43.23304" lon="-6.7677">
        <ele>914.3</ele>
        <time>2016-07-10T05:05:25Z</time>
      </trkpt>
      <trkpt lat="43.23306" lon="-6.76782">
        <ele>913.7</ele>
        <time>2016-07-10T05:05:34Z</time>
      </trkpt>
      <trkpt lat="43.23306" lon="-6.76796">
        <ele>913.3</ele>
        <time>2016-07-10T05:05:43Z</time>
      </trkpt>
      <trkpt lat="43.23307" lon="-6.76809">
        <ele>913</ele>
        <time>2016-07-10T05:05:53Z</time>
      </trkpt>
      <trkpt lat="43.23309" lon="-6.76823">
        <ele>912.5</ele>
        <time>2016-07-10T05:06:01Z</time>
      </trkpt>
      <trkpt lat="43.23311" lon="-6.76836">
        <ele>912.3</ele>
        <time>2016-07-10T05:06:09Z</time>
      </trkpt>
      <trkpt lat="43.23316" lon="-6.76846">
        <ele>905.7</ele>
        <time>2016-07-10T05:06:54Z</time>
      </trkpt>
      <trkpt lat="43.23323" lon="-6.76857">
        <ele>905.1</ele>
        <time>2016-07-10T05:07:03Z</time>
      </trkpt>
      <trkpt lat="43.23331" lon="-6.76865">
        <ele>904.9</ele>
        <time>2016-07-10T05:07:11Z</time>
      </trkpt>
      <trkpt lat="43.23338" lon="-6.76873">
        <ele>905.2</ele>
        <time>2016-07-10T05:07:19Z</time>
      </trkpt>
      <trkpt lat="43.23347" lon="-6.76874">
        <ele>906.5</ele>
        <time>2016-07-10T05:07:36Z</time>
      </trkpt>
      <trkpt lat="43.23355" lon="-6.76867">
        <ele>907.2</ele>
        <time>2016-07-10T05:07:46Z</time>
      </trkpt>
      <trkpt lat="43.23365" lon="-6.76868">
        <ele>908.3</ele>
        <time>2016-07-10T05:07:55Z</time>
      </trkpt>
      <trkpt lat="43.23374" lon="-6.76869">
        <ele>909</ele>
        <time>2016-07-10T05:08:02Z</time>
      </trkpt>
      <trkpt lat="43.23384" lon="-6.76871">
        <ele>910.5</ele>
        <time>2016-07-10T05:08:11Z</time>
      </trkpt>
      <trkpt lat="43.23394" lon="-6.76875">
        <ele>911.9</ele>
        <time>2016-07-10T05:08:19Z</time>
      </trkpt>
      <trkpt lat="43.23404" lon="-6.76879">
        <ele>912.8</ele>
        <time>2016-07-10T05:08:28Z</time>
      </trkpt>
      <trkpt lat="43.23413" lon="-6.76885">
        <ele>913.6</ele>
        <time>2016-07-10T05:08:37Z</time>
      </trkpt>
      <trkpt lat="43.2342" lon="-6.76893">
        <ele>914.9</ele>
        <time>2016-07-10T05:08:45Z</time>
      </trkpt>
      <trkpt lat="43.23424" lon="-6.76904">
        <ele>916.1</ele>
        <time>2016-07-10T05:08:54Z</time>
      </trkpt>
      <trkpt lat="43.23424" lon="-6.76918">
        <ele>917.6</ele>
        <time>2016-07-10T05:09:02Z</time>
      </trkpt>
      <trkpt lat="43.23425" lon="-6.76931">
        <ele>918.6</ele>
        <time>2016-07-10T05:09:11Z</time>
      </trkpt>
      <trkpt lat="43.23425" lon="-6.76945">
        <ele>919.7</ele>
        <time>2016-07-10T05:09:21Z</time>
      </trkpt>
      <trkpt lat="43.23423" lon="-6.76957">
        <ele>920.6</ele>
        <time>2016-07-10T05:09:30Z</time>
      </trkpt>
      <trkpt lat="43.23419" lon="-6.7697">
        <ele>921.3</ele>
        <time>2016-07-10T05:09:38Z</time>
      </trkpt>
      <trkpt lat="43.23417" lon="-6.76982">
        <ele>922.2</ele>
        <time>2016-07-10T05:09:47Z</time>
      </trkpt>
      <trkpt lat="43.23416" lon="-6.76996">
        <ele>922.8</ele>
        <time>2016-07-10T05:09:55Z</time>
      </trkpt>
      <trkpt lat="43.23413" lon="-6.77008">
        <ele>923.5</ele>
        <time>2016-07-10T05:10:03Z</time>
      </trkpt>
      <trkpt lat="43.2341" lon="-6.77021">
        <ele>923.8</ele>
        <time>2016-07-10T05:10:14Z</time>
      </trkpt>
      <trkpt lat="43.23407" lon="-6.77032">
        <ele>924.5</ele>
        <time>2016-07-10T05:10:23Z</time>
      </trkpt>
      <trkpt lat="43.23404" lon="-6.77045">
        <ele>925.1</ele>
        <time>2016-07-10T05:10:31Z</time>
      </trkpt>
      <trkpt lat="43.234" lon="-6.77058">
        <ele>926.1</ele>
        <time>2016-07-10T05:10:40Z</time>
      </trkpt>
      <trkpt lat="43.23399" lon="-6.77071">
        <ele>926.9</ele>
        <time>2016-07-10T05:10:52Z</time>
      </trkpt>
      <trkpt lat="43.23394" lon="-6.77083">
        <ele>927.2</ele>
        <time>2016-07-10T05:11:01Z</time>
      </trkpt>
      <trkpt lat="43.2339" lon="-6.77094">
        <ele>927.7</ele>
        <time>2016-07-10T05:11:11Z</time>
      </trkpt>
      <trkpt lat="43.23385" lon="-6.77104">
        <ele>928.1</ele>
        <time>2016-07-10T05:11:20Z</time>
      </trkpt>
      <trkpt lat="43.2338" lon="-6.77115">
        <ele>928.7</ele>
        <time>2016-07-10T05:11:29Z</time>
      </trkpt>
      <trkpt lat="43.23375" lon="-6.77126">
        <ele>929</ele>
        <time>2016-07-10T05:11:37Z</time>
      </trkpt>
      <trkpt lat="43.23371" lon="-6.77138">
        <ele>930.4</ele>
        <time>2016-07-10T05:11:46Z</time>
      </trkpt>
      <trkpt lat="43.23366" lon="-6.77148">
        <ele>931.7</ele>
        <time>2016-07-10T05:11:56Z</time>
      </trkpt>
      <trkpt lat="43.23362" lon="-6.77159">
        <ele>932.4</ele>
        <time>2016-07-10T05:12:05Z</time>
      </trkpt>
      <trkpt lat="43.23361" lon="-6.77173">
        <ele>933.4</ele>
        <time>2016-07-10T05:12:14Z</time>
      </trkpt>
      <trkpt lat="43.23357" lon="-6.77185">
        <ele>934.2</ele>
        <time>2016-07-10T05:12:23Z</time>
      </trkpt>
      <trkpt lat="43.23353" lon="-6.77198">
        <ele>935</ele>
        <time>2016-07-10T05:12:31Z</time>
      </trkpt>
      <trkpt lat="43.23349" lon="-6.7721">
        <ele>936.2</ele>
        <time>2016-07-10T05:12:41Z</time>
      </trkpt>
      <trkpt lat="43.23351" lon="-6.77223">
        <ele>937.2</ele>
        <time>2016-07-10T05:12:51Z</time>
      </trkpt>
      <trkpt lat="43.23354" lon="-6.77235">
        <ele>937.7</ele>
        <time>2016-07-10T05:13:00Z</time>
      </trkpt>
      <trkpt lat="43.23356" lon="-6.77247">
        <ele>938.2</ele>
        <time>2016-07-10T05:13:08Z</time>
      </trkpt>
      <trkpt lat="43.23358" lon="-6.77259">
        <ele>938.8</ele>
        <time>2016-07-10T05:13:16Z</time>
      </trkpt>
      <trkpt lat="43.23362" lon="-6.77272">
        <ele>939.2</ele>
        <time>2016-07-10T05:13:26Z</time>
      </trkpt>
      <trkpt lat="43.23366" lon="-6.77284">
        <ele>939.8</ele>
        <time>2016-07-10T05:13:35Z</time>
      </trkpt>
      <trkpt lat="43.23371" lon="-6.77294">
        <ele>940.4</ele>
        <time>2016-07-10T05:13:44Z</time>
      </trkpt>
      <trkpt lat="43.23377" lon="-6.77305">
        <ele>941.3</ele>
        <time>2016-07-10T05:13:52Z</time>
      </trkpt>
      <trkpt lat="43.23383" lon="-6.77315">
        <ele>942.9</ele>
        <time>2016-07-10T05:14:01Z</time>
      </trkpt>
      <trkpt lat="43.23391" lon="-6.77323">
        <ele>943.7</ele>
        <time>2016-07-10T05:14:09Z</time>
      </trkpt>
      <trkpt lat="43.23388" lon="-6.77335">
        <ele>945.2</ele>
        <time>2016-07-10T05:14:22Z</time>
      </trkpt>
      <trkpt lat="43.23385" lon="-6.77347">
        <ele>947</ele>
        <time>2016-07-10T05:14:34Z</time>
      </trkpt>
      <trkpt lat="43.23382" lon="-6.77359">
        <ele>948</ele>
        <time>2016-07-10T05:14:46Z</time>
      </trkpt>
      <trkpt lat="43.23385" lon="-6.77373">
        <ele>950.1</ele>
        <time>2016-07-10T05:14:59Z</time>
      </trkpt>
      <trkpt lat="43.23388" lon="-6.77386">
        <ele>951.6</ele>
        <time>2016-07-10T05:15:10Z</time>
      </trkpt>
      <trkpt lat="43.23391" lon="-6.77398">
        <ele>953.3</ele>
        <time>2016-07-10T05:15:20Z</time>
      </trkpt>
      <trkpt lat="43.23392" lon="-6.77411">
        <ele>956.6</ele>
        <time>2016-07-10T05:15:46Z</time>
      </trkpt>
      <trkpt lat="43.23393" lon="-6.77423">
        <ele>957.8</ele>
        <time>2016-07-10T05:15:59Z</time>
      </trkpt>
      <trkpt lat="43.23393" lon="-6.77436">
        <ele>960.4</ele>
        <time>2016-07-10T05:16:12Z</time>
      </trkpt>
      <trkpt lat="43.23394" lon="-6.77449">
        <ele>961.7</ele>
        <time>2016-07-10T05:16:23Z</time>
      </trkpt>
      <trkpt lat="43.23393" lon="-6.77461">
        <ele>963.3</ele>
        <time>2016-07-10T05:16:36Z</time>
      </trkpt>
      <trkpt lat="43.23389" lon="-6.77473">
        <ele>964.7</ele>
        <time>2016-07-10T05:16:47Z</time>
      </trkpt>
      <trkpt lat="43.23383" lon="-6.77482">
        <ele>966.1</ele>
        <time>2016-07-10T05:16:58Z</time>
      </trkpt>
      <trkpt lat="43.23377" lon="-6.77492">
        <ele>967.3</ele>
        <time>2016-07-10T05:17:09Z</time>
      </trkpt>
      <trkpt lat="43.23373" lon="-6.77503">
        <ele>968.7</ele>
        <time>2016-07-10T05:17:21Z</time>
      </trkpt>
      <trkpt lat="43.23368" lon="-6.77514">
        <ele>970.3</ele>
        <time>2016-07-10T05:17:33Z</time>
      </trkpt>
      <trkpt lat="43.23363" lon="-6.77524">
        <ele>971.4</ele>
        <time>2016-07-10T05:17:45Z</time>
      </trkpt>
      <trkpt lat="43.23357" lon="-6.77535">
        <ele>972.5</ele>
        <time>2016-07-10T05:17:58Z</time>
      </trkpt>
      <trkpt lat="43.2335" lon="-6.77544">
        <ele>973.6</ele>
        <time>2016-07-10T05:18:08Z</time>
      </trkpt>
      <trkpt lat="43.23344" lon="-6.77553">
        <ele>974.5</ele>
        <time>2016-07-10T05:18:19Z</time>
      </trkpt>
      <trkpt lat="43.23338" lon="-6.77564">
        <ele>975.7</ele>
        <time>2016-07-10T05:18:30Z</time>
      </trkpt>
      <trkpt lat="43.23333" lon="-6.77575">
        <ele>976.7</ele>
        <time>2016-07-10T05:18:40Z</time>
      </trkpt>
      <trkpt lat="43.23329" lon="-6.77586">
        <ele>977.5</ele>
        <time>2016-07-10T05:18:49Z</time>
      </trkpt>
      <trkpt lat="43.23326" lon="-6.77599">
        <ele>978.9</ele>
        <time>2016-07-10T05:19:02Z</time>
      </trkpt>
      <trkpt lat="43.23327" lon="-6.77612">
        <ele>980.5</ele>
        <time>2016-07-10T05:19:12Z</time>
      </trkpt>
      <trkpt lat="43.23325" lon="-6.77624">
        <ele>981.7</ele>
        <time>2016-07-10T05:19:23Z</time>
      </trkpt>
      <trkpt lat="43.23324" lon="-6.77636">
        <ele>982.8</ele>
        <time>2016-07-10T05:19:33Z</time>
      </trkpt>
      <trkpt lat="43.23323" lon="-6.77649">
        <ele>984.1</ele>
        <time>2016-07-10T05:19:45Z</time>
      </trkpt>
      <trkpt lat="43.23321" lon="-6.77661">
        <ele>985.6</ele>
        <time>2016-07-10T05:19:55Z</time>
      </trkpt>
      <trkpt lat="43.2332" lon="-6.77675">
        <ele>986.8</ele>
        <time>2016-07-10T05:20:06Z</time>
      </trkpt>
      <trkpt lat="43.23321" lon="-6.77687">
        <ele>988.4</ele>
        <time>2016-07-10T05:20:17Z</time>
      </trkpt>
      <trkpt lat="43.2332" lon="-6.77701">
        <ele>989.8</ele>
        <time>2016-07-10T05:20:29Z</time>
      </trkpt>
      <trkpt lat="43.23319" lon="-6.77714">
        <ele>990.5</ele>
        <time>2016-07-10T05:20:39Z</time>
      </trkpt>
      <trkpt lat="43.23317" lon="-6.77727">
        <ele>991.8</ele>
        <time>2016-07-10T05:20:50Z</time>
      </trkpt>
      <trkpt lat="43.23318" lon="-6.77739">
        <ele>992.9</ele>
        <time>2016-07-10T05:21:00Z</time>
      </trkpt>
      <trkpt lat="43.23321" lon="-6.77751">
        <ele>994</ele>
        <time>2016-07-10T05:21:10Z</time>
      </trkpt>
      <trkpt lat="43.23324" lon="-6.77763">
        <ele>995.3</ele>
        <time>2016-07-10T05:21:20Z</time>
      </trkpt>
      <trkpt lat="43.23324" lon="-6.77776">
        <ele>996.5</ele>
        <time>2016-07-10T05:21:30Z</time>
      </trkpt>
      <trkpt lat="43.23321" lon="-6.77788">
        <ele>997.8</ele>
        <time>2016-07-10T05:21:40Z</time>
      </trkpt>
      <trkpt lat="43.23316" lon="-6.77799">
        <ele>998.5</ele>
        <time>2016-07-10T05:21:50Z</time>
      </trkpt>
      <trkpt lat="43.2331" lon="-6.77808">
        <ele>998.8</ele>
        <time>2016-07-10T05:21:58Z</time>
      </trkpt>
      <trkpt lat="43.23303" lon="-6.77818">
        <ele>999.1</ele>
        <time>2016-07-10T05:22:07Z</time>
      </trkpt>
      <trkpt lat="43.23298" lon="-6.77829">
        <ele>999.5</ele>
        <time>2016-07-10T05:22:17Z</time>
      </trkpt>
      <trkpt lat="43.23294" lon="-6.7784">
        <ele>1000</ele>
        <time>2016-07-10T05:22:26Z</time>
      </trkpt>
      <trkpt lat="43.23291" lon="-6.77852">
        <ele>1000.3</ele>
        <time>2016-07-10T05:22:36Z</time>
      </trkpt>
      <trkpt lat="43.23288" lon="-6.77864">
        <ele>1000.6</ele>
        <time>2016-07-10T05:22:55Z</time>
      </trkpt>
      <trkpt lat="43.23284" lon="-6.77876">
        <ele>1000.1</ele>
        <time>2016-07-10T05:23:08Z</time>
      </trkpt>
      <trkpt lat="43.23279" lon="-6.77887">
        <ele>1000.4</ele>
        <time>2016-07-10T05:23:19Z</time>
      </trkpt>
      <trkpt lat="43.23276" lon="-6.779">
        <ele>1000.4</ele>
        <time>2016-07-10T05:23:28Z</time>
      </trkpt>
      <trkpt lat="43.23277" lon="-6.77914">
        <ele>1000.6</ele>
        <time>2016-07-10T05:23:38Z</time>
      </trkpt>
      <trkpt lat="43.23277" lon="-6.77927">
        <ele>1000.9</ele>
        <time>2016-07-10T05:23:47Z</time>
      </trkpt>
      <trkpt lat="43.23274" lon="-6.7794">
        <ele>1001.2</ele>
        <time>2016-07-10T05:23:54Z</time>
      </trkpt>
      <trkpt lat="43.23272" lon="-6.77952">
        <ele>1001.4</ele>
        <time>2016-07-10T05:24:00Z</time>
      </trkpt>
      <trkpt lat="43.23269" lon="-6.77965">
        <ele>1001.2</ele>
        <time>2016-07-10T05:24:06Z</time>
      </trkpt>
      <trkpt lat="43.23266" lon="-6.77978">
        <ele>1001.4</ele>
        <time>2016-07-10T05:24:13Z</time>
      </trkpt>
      <trkpt lat="43.23263" lon="-6.7799">
        <ele>1001.6</ele>
        <time>2016-07-10T05:24:20Z</time>
      </trkpt>
      <trkpt lat="43.23258" lon="-6.78002">
        <ele>1002</ele>
        <time>2016-07-10T05:24:27Z</time>
      </trkpt>
      <trkpt lat="43.23255" lon="-6.78014">
        <ele>1002</ele>
        <time>2016-07-10T05:24:34Z</time>
      </trkpt>
      <trkpt lat="43.23252" lon="-6.78026">
        <ele>1001.6</ele>
        <time>2016-07-10T05:24:42Z</time>
      </trkpt>
      <trkpt lat="43.23248" lon="-6.7804">
        <ele>1001.1</ele>
        <time>2016-07-10T05:24:51Z</time>
      </trkpt>
      <trkpt lat="43.23246" lon="-6.78053">
        <ele>1000.4</ele>
        <time>2016-07-10T05:25:00Z</time>
      </trkpt>
      <trkpt lat="43.23242" lon="-6.78064">
        <ele>1000.1</ele>
        <time>2016-07-10T05:25:07Z</time>
      </trkpt>
      <trkpt lat="43.23239" lon="-6.78076">
        <ele>999.9</ele>
        <time>2016-07-10T05:25:15Z</time>
      </trkpt>
      <trkpt lat="43.23236" lon="-6.78088">
        <ele>999.3</ele>
        <time>2016-07-10T05:25:23Z</time>
      </trkpt>
      <trkpt lat="43.23232" lon="-6.781">
        <ele>998.5</ele>
        <time>2016-07-10T05:25:31Z</time>
      </trkpt>
      <trkpt lat="43.23228" lon="-6.78112">
        <ele>997.5</ele>
        <time>2016-07-10T05:25:39Z</time>
      </trkpt>
      <trkpt lat="43.23224" lon="-6.78124">
        <ele>996.2</ele>
        <time>2016-07-10T05:25:47Z</time>
      </trkpt>
      <trkpt lat="43.23219" lon="-6.78136">
        <ele>995.4</ele>
        <time>2016-07-10T05:25:55Z</time>
      </trkpt>
      <trkpt lat="43.23213" lon="-6.78146">
        <ele>994.6</ele>
        <time>2016-07-10T05:26:02Z</time>
      </trkpt>
      <trkpt lat="43.23205" lon="-6.78154">
        <ele>993.5</ele>
        <time>2016-07-10T05:26:09Z</time>
      </trkpt>
      <trkpt lat="43.23198" lon="-6.78163">
        <ele>992.7</ele>
        <time>2016-07-10T05:26:17Z</time>
      </trkpt>
      <trkpt lat="43.23191" lon="-6.78172">
        <ele>992</ele>
        <time>2016-07-10T05:26:26Z</time>
      </trkpt>
      <trkpt lat="43.23184" lon="-6.78181">
        <ele>991.7</ele>
        <time>2016-07-10T05:26:34Z</time>
      </trkpt>
      <trkpt lat="43.23177" lon="-6.78189">
        <ele>990.7</ele>
        <time>2016-07-10T05:26:41Z</time>
      </trkpt>
      <trkpt lat="43.2317" lon="-6.78198">
        <ele>989.9</ele>
        <time>2016-07-10T05:26:49Z</time>
      </trkpt>
      <trkpt lat="43.23162" lon="-6.78206">
        <ele>988.8</ele>
        <time>2016-07-10T05:26:57Z</time>
      </trkpt>
      <trkpt lat="43.23153" lon="-6.78214">
        <ele>988.1</ele>
        <time>2016-07-10T05:27:05Z</time>
      </trkpt>
      <trkpt lat="43.23146" lon="-6.78221">
        <ele>987.4</ele>
        <time>2016-07-10T05:27:12Z</time>
      </trkpt>
      <trkpt lat="43.23137" lon="-6.78229">
        <ele>986.6</ele>
        <time>2016-07-10T05:27:20Z</time>
      </trkpt>
      <trkpt lat="43.2313" lon="-6.78236">
        <ele>986.2</ele>
        <time>2016-07-10T05:27:28Z</time>
      </trkpt>
      <trkpt lat="43.23122" lon="-6.78243">
        <ele>985.9</ele>
        <time>2016-07-10T05:27:36Z</time>
      </trkpt>
      <trkpt lat="43.23114" lon="-6.7825">
        <ele>985.7</ele>
        <time>2016-07-10T05:27:43Z</time>
      </trkpt>
      <trkpt lat="43.23105" lon="-6.78257">
        <ele>985</ele>
        <time>2016-07-10T05:27:51Z</time>
      </trkpt>
      <trkpt lat="43.23096" lon="-6.78263">
        <ele>984.5</ele>
        <time>2016-07-10T05:27:58Z</time>
      </trkpt>
      <trkpt lat="43.23088" lon="-6.78269">
        <ele>984</ele>
        <time>2016-07-10T05:28:05Z</time>
      </trkpt>
      <trkpt lat="43.23079" lon="-6.78278">
        <ele>983.5</ele>
        <time>2016-07-10T05:28:13Z</time>
      </trkpt>
      <trkpt lat="43.23072" lon="-6.78286">
        <ele>983.6</ele>
        <time>2016-07-10T05:28:20Z</time>
      </trkpt>
      <trkpt lat="43.23065" lon="-6.78295">
        <ele>983.4</ele>
        <time>2016-07-10T05:28:28Z</time>
      </trkpt>
      <trkpt lat="43.2306" lon="-6.78306">
        <ele>982.8</ele>
        <time>2016-07-10T05:28:37Z</time>
      </trkpt>
      <trkpt lat="43.23058" lon="-6.78319">
        <ele>982.7</ele>
        <time>2016-07-10T05:28:46Z</time>
      </trkpt>
      <trkpt lat="43.23054" lon="-6.7833">
        <ele>982.6</ele>
        <time>2016-07-10T05:28:54Z</time>
      </trkpt>
      <trkpt lat="43.23053" lon="-6.78343">
        <ele>982.4</ele>
        <time>2016-07-10T05:29:01Z</time>
      </trkpt>
      <trkpt lat="43.23055" lon="-6.78356">
        <ele>982.3</ele>
        <time>2016-07-10T05:29:08Z</time>
      </trkpt>
      <trkpt lat="43.23058" lon="-6.7837">
        <ele>982.2</ele>
        <time>2016-07-10T05:29:15Z</time>
      </trkpt>
      <trkpt lat="43.23059" lon="-6.78382">
        <ele>981.9</ele>
        <time>2016-07-10T05:29:22Z</time>
      </trkpt>
      <trkpt lat="43.23062" lon="-6.78396">
        <ele>982</ele>
        <time>2016-07-10T05:29:30Z</time>
      </trkpt>
      <trkpt lat="43.23064" lon="-6.78408">
        <ele>982</ele>
        <time>2016-07-10T05:29:37Z</time>
      </trkpt>
      <trkpt lat="43.23066" lon="-6.7842">
        <ele>981.9</ele>
        <time>2016-07-10T05:29:44Z</time>
      </trkpt>
      <trkpt lat="43.23066" lon="-6.78434">
        <ele>981.7</ele>
        <time>2016-07-10T05:29:51Z</time>
      </trkpt>
      <trkpt lat="43.23066" lon="-6.78446">
        <ele>981.5</ele>
        <time>2016-07-10T05:29:58Z</time>
      </trkpt>
      <trkpt lat="43.23063" lon="-6.78459">
        <ele>981.4</ele>
        <time>2016-07-10T05:30:06Z</time>
      </trkpt>
      <trkpt lat="43.2306" lon="-6.78471">
        <ele>980.9</ele>
        <time>2016-07-10T05:30:14Z</time>
      </trkpt>
      <trkpt lat="43.23055" lon="-6.78481">
        <ele>980.1</ele>
        <time>2016-07-10T05:30:22Z</time>
      </trkpt>
      <trkpt lat="43.23048" lon="-6.78491">
        <ele>979.2</ele>
        <time>2016-07-10T05:30:31Z</time>
      </trkpt>
      <trkpt lat="43.23041" lon="-6.785">
        <ele>978.7</ele>
        <time>2016-07-10T05:30:39Z</time>
      </trkpt>
      <trkpt lat="43.23037" lon="-6.78512">
        <ele>977.7</ele>
        <time>2016-07-10T05:30:51Z</time>
      </trkpt>
      <trkpt lat="43.23032" lon="-6.78522">
        <ele>977.5</ele>
        <time>2016-07-10T05:30:58Z</time>
      </trkpt>
      <trkpt lat="43.23025" lon="-6.78533">
        <ele>977.3</ele>
        <time>2016-07-10T05:31:06Z</time>
      </trkpt>
      <trkpt lat="43.2302" lon="-6.78544">
        <ele>976.8</ele>
        <time>2016-07-10T05:31:14Z</time>
      </trkpt>
      <trkpt lat="43.23014" lon="-6.78555">
        <ele>976.6</ele>
        <time>2016-07-10T05:31:21Z</time>
      </trkpt>
      <trkpt lat="43.23009" lon="-6.78566">
        <ele>976.1</ele>
        <time>2016-07-10T05:31:28Z</time>
      </trkpt>
      <trkpt lat="43.23005" lon="-6.78578">
        <ele>975.6</ele>
        <time>2016-07-10T05:31:35Z</time>
      </trkpt>
      <trkpt lat="43.23001" lon="-6.78589">
        <ele>975.3</ele>
        <time>2016-07-10T05:31:42Z</time>
      </trkpt>
      <trkpt lat="43.22996" lon="-6.786">
        <ele>974.4</ele>
        <time>2016-07-10T05:31:49Z</time>
      </trkpt>
      <trkpt lat="43.22991" lon="-6.78611">
        <ele>973.7</ele>
        <time>2016-07-10T05:31:56Z</time>
      </trkpt>
      <trkpt lat="43.22986" lon="-6.78621">
        <ele>972.9</ele>
        <time>2016-07-10T05:32:03Z</time>
      </trkpt>
      <trkpt lat="43.22979" lon="-6.78631">
        <ele>972</ele>
        <time>2016-07-10T05:32:10Z</time>
      </trkpt>
      <trkpt lat="43.22971" lon="-6.7864">
        <ele>971.2</ele>
        <time>2016-07-10T05:32:18Z</time>
      </trkpt>
      <trkpt lat="43.22963" lon="-6.78646">
        <ele>970.7</ele>
        <time>2016-07-10T05:32:25Z</time>
      </trkpt>
      <trkpt lat="43.22955" lon="-6.78655">
        <ele>969.6</ele>
        <time>2016-07-10T05:32:33Z</time>
      </trkpt>
      <trkpt lat="43.22947" lon="-6.78662">
        <ele>968.2</ele>
        <time>2016-07-10T05:32:41Z</time>
      </trkpt>
      <trkpt lat="43.22938" lon="-6.78667">
        <ele>967.2</ele>
        <time>2016-07-10T05:32:48Z</time>
      </trkpt>
      <trkpt lat="43.2293" lon="-6.78672">
        <ele>966.5</ele>
        <time>2016-07-10T05:32:55Z</time>
      </trkpt>
      <trkpt lat="43.22922" lon="-6.78678">
        <ele>965.6</ele>
        <time>2016-07-10T05:33:01Z</time>
      </trkpt>
      <trkpt lat="43.22913" lon="-6.78684">
        <ele>964.3</ele>
        <time>2016-07-10T05:33:08Z</time>
      </trkpt>
      <trkpt lat="43.22904" lon="-6.78689">
        <ele>963.3</ele>
        <time>2016-07-10T05:33:15Z</time>
      </trkpt>
      <trkpt lat="43.22895" lon="-6.7869">
        <ele>962.9</ele>
        <time>2016-07-10T05:33:22Z</time>
      </trkpt>
      <trkpt lat="43.22885" lon="-6.78689">
        <ele>962.3</ele>
        <time>2016-07-10T05:33:30Z</time>
      </trkpt>
      <trkpt lat="43.22876" lon="-6.78687">
        <ele>961.8</ele>
        <time>2016-07-10T05:33:36Z</time>
      </trkpt>
      <trkpt lat="43.22865" lon="-6.78687">
        <ele>961.1</ele>
        <time>2016-07-10T05:33:43Z</time>
      </trkpt>
      <trkpt lat="43.22858" lon="-6.78694">
        <ele>960.7</ele>
        <time>2016-07-10T05:33:50Z</time>
      </trkpt>
      <trkpt lat="43.22854" lon="-6.78707">
        <ele>959.9</ele>
        <time>2016-07-10T05:33:58Z</time>
      </trkpt>
      <trkpt lat="43.22851" lon="-6.7872">
        <ele>959.1</ele>
        <time>2016-07-10T05:34:06Z</time>
      </trkpt>
      <trkpt lat="43.22847" lon="-6.78731">
        <ele>959.2</ele>
        <time>2016-07-10T05:34:13Z</time>
      </trkpt>
      <trkpt lat="43.22842" lon="-6.78741">
        <ele>959.3</ele>
        <time>2016-07-10T05:34:21Z</time>
      </trkpt>
      <trkpt lat="43.22837" lon="-6.78752">
        <ele>959.4</ele>
        <time>2016-07-10T05:34:28Z</time>
      </trkpt>
      <trkpt lat="43.2283" lon="-6.78762">
        <ele>959.4</ele>
        <time>2016-07-10T05:34:35Z</time>
      </trkpt>
      <trkpt lat="43.22824" lon="-6.78772">
        <ele>959.5</ele>
        <time>2016-07-10T05:34:43Z</time>
      </trkpt>
      <trkpt lat="43.22819" lon="-6.78783">
        <ele>959.6</ele>
        <time>2016-07-10T05:34:52Z</time>
      </trkpt>
      <trkpt lat="43.22815" lon="-6.78794">
        <ele>960</ele>
        <time>2016-07-10T05:34:59Z</time>
      </trkpt>
      <trkpt lat="43.22813" lon="-6.78807">
        <ele>960.1</ele>
        <time>2016-07-10T05:35:07Z</time>
      </trkpt>
      <trkpt lat="43.22809" lon="-6.78819">
        <ele>960.4</ele>
        <time>2016-07-10T05:35:16Z</time>
      </trkpt>
      <trkpt lat="43.22805" lon="-6.78831">
        <ele>960.5</ele>
        <time>2016-07-10T05:35:24Z</time>
      </trkpt>
      <trkpt lat="43.22802" lon="-6.78844">
        <ele>961</ele>
        <time>2016-07-10T05:35:31Z</time>
      </trkpt>
      <trkpt lat="43.22799" lon="-6.78856">
        <ele>961.6</ele>
        <time>2016-07-10T05:35:39Z</time>
      </trkpt>
      <trkpt lat="43.22793" lon="-6.78867">
        <ele>962.1</ele>
        <time>2016-07-10T05:35:47Z</time>
      </trkpt>
      <trkpt lat="43.22787" lon="-6.78876">
        <ele>962.4</ele>
        <time>2016-07-10T05:35:54Z</time>
      </trkpt>
      <trkpt lat="43.22782" lon="-6.78887">
        <ele>962.9</ele>
        <time>2016-07-10T05:36:01Z</time>
      </trkpt>
      <trkpt lat="43.22777" lon="-6.78897">
        <ele>963.1</ele>
        <time>2016-07-10T05:36:08Z</time>
      </trkpt>
      <trkpt lat="43.22772" lon="-6.78908">
        <ele>963.2</ele>
        <time>2016-07-10T05:36:16Z</time>
      </trkpt>
      <trkpt lat="43.22766" lon="-6.78919">
        <ele>963.2</ele>
        <time>2016-07-10T05:36:24Z</time>
      </trkpt>
      <trkpt lat="43.22759" lon="-6.78928">
        <ele>963.2</ele>
        <time>2016-07-10T05:36:32Z</time>
      </trkpt>
      <trkpt lat="43.22752" lon="-6.78937">
        <ele>963.2</ele>
        <time>2016-07-10T05:36:40Z</time>
      </trkpt>
      <trkpt lat="43.22745" lon="-6.78945">
        <ele>963.5</ele>
        <time>2016-07-10T05:36:48Z</time>
      </trkpt>
      <trkpt lat="43.22738" lon="-6.78955">
        <ele>963.3</ele>
        <time>2016-07-10T05:36:56Z</time>
      </trkpt>
      <trkpt lat="43.22732" lon="-6.78964">
        <ele>962.7</ele>
        <time>2016-07-10T05:37:04Z</time>
      </trkpt>
      <trkpt lat="43.22726" lon="-6.78974">
        <ele>962.2</ele>
        <time>2016-07-10T05:37:14Z</time>
      </trkpt>
      <trkpt lat="43.22718" lon="-6.78982">
        <ele>961.7</ele>
        <time>2016-07-10T05:37:22Z</time>
      </trkpt>
      <trkpt lat="43.22709" lon="-6.78989">
        <ele>961.2</ele>
        <time>2016-07-10T05:37:30Z</time>
      </trkpt>
      <trkpt lat="43.22701" lon="-6.78995">
        <ele>961</ele>
        <time>2016-07-10T05:37:37Z</time>
      </trkpt>
      <trkpt lat="43.22692" lon="-6.79001">
        <ele>960.2</ele>
        <time>2016-07-10T05:37:45Z</time>
      </trkpt>
      <trkpt lat="43.22683" lon="-6.79007">
        <ele>959.7</ele>
        <time>2016-07-10T05:37:53Z</time>
      </trkpt>
      <trkpt lat="43.22675" lon="-6.79013">
        <ele>959</ele>
        <time>2016-07-10T05:38:00Z</time>
      </trkpt>
      <trkpt lat="43.22666" lon="-6.79018">
        <ele>958.2</ele>
        <time>2016-07-10T05:38:07Z</time>
      </trkpt>
      <trkpt lat="43.22657" lon="-6.79023">
        <ele>957.2</ele>
        <time>2016-07-10T05:38:14Z</time>
      </trkpt>
      <trkpt lat="43.22648" lon="-6.79028">
        <ele>956.3</ele>
        <time>2016-07-10T05:38:21Z</time>
      </trkpt>
      <trkpt lat="43.2264" lon="-6.79033">
        <ele>954.8</ele>
        <time>2016-07-10T05:38:29Z</time>
      </trkpt>
      <trkpt lat="43.22631" lon="-6.79037">
        <ele>954</ele>
        <time>2016-07-10T05:38:36Z</time>
      </trkpt>
      <trkpt lat="43.22622" lon="-6.7904">
        <ele>953.5</ele>
        <time>2016-07-10T05:38:43Z</time>
      </trkpt>
      <trkpt lat="43.22613" lon="-6.7904">
        <ele>953.2</ele>
        <time>2016-07-10T05:38:50Z</time>
      </trkpt>
      <trkpt lat="43.22603" lon="-6.79039">
        <ele>952.2</ele>
        <time>2016-07-10T05:38:57Z</time>
      </trkpt>
      <trkpt lat="43.22593" lon="-6.79037">
        <ele>951.1</ele>
        <time>2016-07-10T05:39:05Z</time>
      </trkpt>
      <trkpt lat="43.22584" lon="-6.79035">
        <ele>950.2</ele>
        <time>2016-07-10T05:39:12Z</time>
      </trkpt>
      <trkpt lat="43.22574" lon="-6.79031">
        <ele>949.1</ele>
        <time>2016-07-10T05:39:20Z</time>
      </trkpt>
      <trkpt lat="43.22565" lon="-6.79026">
        <ele>948.2</ele>
        <time>2016-07-10T05:39:27Z</time>
      </trkpt>
      <trkpt lat="43.22556" lon="-6.79021">
        <ele>947.4</ele>
        <time>2016-07-10T05:39:35Z</time>
      </trkpt>
      <trkpt lat="43.22547" lon="-6.79019">
        <ele>946.7</ele>
        <time>2016-07-10T05:39:42Z</time>
      </trkpt>
      <trkpt lat="43.22537" lon="-6.79024">
        <ele>946.3</ele>
        <time>2016-07-10T05:39:49Z</time>
      </trkpt>
      <trkpt lat="43.22532" lon="-6.79035">
        <ele>946.2</ele>
        <time>2016-07-10T05:39:56Z</time>
      </trkpt>
      <trkpt lat="43.22531" lon="-6.79047">
        <ele>946.2</ele>
        <time>2016-07-10T05:40:03Z</time>
      </trkpt>
      <trkpt lat="43.22531" lon="-6.79061">
        <ele>946.7</ele>
        <time>2016-07-10T05:40:11Z</time>
      </trkpt>
      <trkpt lat="43.22532" lon="-6.79074">
        <ele>946.9</ele>
        <time>2016-07-10T05:40:18Z</time>
      </trkpt>
      <trkpt lat="43.22532" lon="-6.79086">
        <ele>947</ele>
        <time>2016-07-10T05:40:25Z</time>
      </trkpt>
      <trkpt lat="43.22531" lon="-6.79099">
        <ele>946.8</ele>
        <time>2016-07-10T05:40:32Z</time>
      </trkpt>
      <trkpt lat="43.22528" lon="-6.79111">
        <ele>946.6</ele>
        <time>2016-07-10T05:40:39Z</time>
      </trkpt>
      <trkpt lat="43.22522" lon="-6.79121">
        <ele>946.2</ele>
        <time>2016-07-10T05:40:46Z</time>
      </trkpt>
      <trkpt lat="43.22515" lon="-6.7913">
        <ele>945.9</ele>
        <time>2016-07-10T05:40:54Z</time>
      </trkpt>
      <trkpt lat="43.22508" lon="-6.79139">
        <ele>945.4</ele>
        <time>2016-07-10T05:41:01Z</time>
      </trkpt>
      <trkpt lat="43.22502" lon="-6.79149">
        <ele>944.3</ele>
        <time>2016-07-10T05:41:09Z</time>
      </trkpt>
      <trkpt lat="43.22495" lon="-6.79159">
        <ele>943.6</ele>
        <time>2016-07-10T05:41:17Z</time>
      </trkpt>
      <trkpt lat="43.2249" lon="-6.79169">
        <ele>943.3</ele>
        <time>2016-07-10T05:41:24Z</time>
      </trkpt>
      <trkpt lat="43.22484" lon="-6.79179">
        <ele>942.7</ele>
        <time>2016-07-10T05:41:31Z</time>
      </trkpt>
      <trkpt lat="43.22478" lon="-6.79189">
        <ele>942.1</ele>
        <time>2016-07-10T05:41:39Z</time>
      </trkpt>
      <trkpt lat="43.2247" lon="-6.79199">
        <ele>941.8</ele>
        <time>2016-07-10T05:41:47Z</time>
      </trkpt>
      <trkpt lat="43.22462" lon="-6.79207">
        <ele>941.1</ele>
        <time>2016-07-10T05:41:55Z</time>
      </trkpt>
      <trkpt lat="43.22453" lon="-6.79214">
        <ele>940.6</ele>
        <time>2016-07-10T05:42:03Z</time>
      </trkpt>
      <trkpt lat="43.22444" lon="-6.7922">
        <ele>939.7</ele>
        <time>2016-07-10T05:42:11Z</time>
      </trkpt>
      <trkpt lat="43.22436" lon="-6.79225">
        <ele>939.1</ele>
        <time>2016-07-10T05:42:18Z</time>
      </trkpt>
      <trkpt lat="43.22427" lon="-6.79228">
        <ele>938.6</ele>
        <time>2016-07-10T05:42:25Z</time>
      </trkpt>
      <trkpt lat="43.22418" lon="-6.79231">
        <ele>938.2</ele>
        <time>2016-07-10T05:42:33Z</time>
      </trkpt>
      <trkpt lat="43.22408" lon="-6.79235">
        <ele>937.5</ele>
        <time>2016-07-10T05:42:41Z</time>
      </trkpt>
      <trkpt lat="43.22398" lon="-6.79238">
        <ele>936.5</ele>
        <time>2016-07-10T05:42:49Z</time>
      </trkpt>
      <trkpt lat="43.22389" lon="-6.79241">
        <ele>935.5</ele>
        <time>2016-07-10T05:42:56Z</time>
      </trkpt>
      <trkpt lat="43.22379" lon="-6.79242">
        <ele>934.8</ele>
        <time>2016-07-10T05:43:04Z</time>
      </trkpt>
      <trkpt lat="43.22369" lon="-6.79245">
        <ele>934.4</ele>
        <time>2016-07-10T05:43:12Z</time>
      </trkpt>
      <trkpt lat="43.22359" lon="-6.79248">
        <ele>934.1</ele>
        <time>2016-07-10T05:43:20Z</time>
      </trkpt>
      <trkpt lat="43.22349" lon="-6.79251">
        <ele>933.4</ele>
        <time>2016-07-10T05:43:28Z</time>
      </trkpt>
      <trkpt lat="43.2234" lon="-6.79254">
        <ele>932.7</ele>
        <time>2016-07-10T05:43:36Z</time>
      </trkpt>
      <trkpt lat="43.22331" lon="-6.79258">
        <ele>932.2</ele>
        <time>2016-07-10T05:43:44Z</time>
      </trkpt>
      <trkpt lat="43.2232" lon="-6.7926">
        <ele>931.8</ele>
        <time>2016-07-10T05:43:52Z</time>
      </trkpt>
      <trkpt lat="43.22311" lon="-6.7926">
        <ele>931.4</ele>
        <time>2016-07-10T05:43:59Z</time>
      </trkpt>
      <trkpt lat="43.22301" lon="-6.79259">
        <ele>930.5</ele>
        <time>2016-07-10T05:44:07Z</time>
      </trkpt>
      <trkpt lat="43.22291" lon="-6.79258">
        <ele>929.9</ele>
        <time>2016-07-10T05:44:16Z</time>
      </trkpt>
      <trkpt lat="43.22282" lon="-6.79254">
        <ele>929.4</ele>
        <time>2016-07-10T05:44:25Z</time>
      </trkpt>
      <trkpt lat="43.22273" lon="-6.79251">
        <ele>928.8</ele>
        <time>2016-07-10T05:44:35Z</time>
      </trkpt>
      <trkpt lat="43.22263" lon="-6.79249">
        <ele>927.9</ele>
        <time>2016-07-10T05:44:43Z</time>
      </trkpt>
      <trkpt lat="43.22254" lon="-6.7925">
        <ele>927.3</ele>
        <time>2016-07-10T05:44:50Z</time>
      </trkpt>
      <trkpt lat="43.22246" lon="-6.79257">
        <ele>926.9</ele>
        <time>2016-07-10T05:44:58Z</time>
      </trkpt>
      <trkpt lat="43.22239" lon="-6.79264">
        <ele>926.8</ele>
        <time>2016-07-10T05:45:05Z</time>
      </trkpt>
      <trkpt lat="43.22232" lon="-6.79273">
        <ele>926.9</ele>
        <time>2016-07-10T05:45:12Z</time>
      </trkpt>
      <trkpt lat="43.22225" lon="-6.79282">
        <ele>927.4</ele>
        <time>2016-07-10T05:45:19Z</time>
      </trkpt>
      <trkpt lat="43.22218" lon="-6.79291">
        <ele>927.8</ele>
        <time>2016-07-10T05:45:26Z</time>
      </trkpt>
      <trkpt lat="43.2221" lon="-6.79299">
        <ele>928.3</ele>
        <time>2016-07-10T05:45:33Z</time>
      </trkpt>
      <trkpt lat="43.22203" lon="-6.79306">
        <ele>928.5</ele>
        <time>2016-07-10T05:45:40Z</time>
      </trkpt>
      <trkpt lat="43.22195" lon="-6.79314">
        <ele>928.6</ele>
        <time>2016-07-10T05:45:47Z</time>
      </trkpt>
      <trkpt lat="43.22188" lon="-6.79321">
        <ele>929</ele>
        <time>2016-07-10T05:45:54Z</time>
      </trkpt>
      <trkpt lat="43.2218" lon="-6.79328">
        <ele>929.4</ele>
        <time>2016-07-10T05:46:01Z</time>
      </trkpt>
      <trkpt lat="43.22173" lon="-6.79336">
        <ele>929.6</ele>
        <time>2016-07-10T05:46:08Z</time>
      </trkpt>
      <trkpt lat="43.22165" lon="-6.79343">
        <ele>929.6</ele>
        <time>2016-07-10T05:46:15Z</time>
      </trkpt>
      <trkpt lat="43.22158" lon="-6.7935">
        <ele>929.5</ele>
        <time>2016-07-10T05:46:22Z</time>
      </trkpt>
      <trkpt lat="43.22151" lon="-6.79359">
        <ele>929.3</ele>
        <time>2016-07-10T05:46:29Z</time>
      </trkpt>
      <trkpt lat="43.22143" lon="-6.79367">
        <ele>929.1</ele>
        <time>2016-07-10T05:46:36Z</time>
      </trkpt>
      <trkpt lat="43.22137" lon="-6.79376">
        <ele>928.8</ele>
        <time>2016-07-10T05:46:43Z</time>
      </trkpt>
      <trkpt lat="43.22133" lon="-6.79388">
        <ele>928.7</ele>
        <time>2016-07-10T05:46:50Z</time>
      </trkpt>
      <trkpt lat="43.22136" lon="-6.794">
        <ele>928.2</ele>
        <time>2016-07-10T05:47:00Z</time>
      </trkpt>
      <trkpt lat="43.22143" lon="-6.7941">
        <ele>928.1</ele>
        <time>2016-07-10T05:47:08Z</time>
      </trkpt>
      <trkpt lat="43.22151" lon="-6.79418">
        <ele>928.1</ele>
        <time>2016-07-10T05:47:16Z</time>
      </trkpt>
      <trkpt lat="43.22159" lon="-6.79426">
        <ele>928.3</ele>
        <time>2016-07-10T05:47:24Z</time>
      </trkpt>
      <trkpt lat="43.22168" lon="-6.79432">
        <ele>928.4</ele>
        <time>2016-07-10T05:47:32Z</time>
      </trkpt>
      <trkpt lat="43.22175" lon="-6.79439">
        <ele>928.3</ele>
        <time>2016-07-10T05:47:39Z</time>
      </trkpt>
      <trkpt lat="43.22183" lon="-6.79445">
        <ele>928.3</ele>
        <time>2016-07-10T05:47:46Z</time>
      </trkpt>
      <trkpt lat="43.22192" lon="-6.79452">
        <ele>928.4</ele>
        <time>2016-07-10T05:47:53Z</time>
      </trkpt>
      <trkpt lat="43.22199" lon="-6.79461">
        <ele>928.6</ele>
        <time>2016-07-10T05:48:00Z</time>
      </trkpt>
      <trkpt lat="43.22204" lon="-6.79472">
        <ele>928.7</ele>
        <time>2016-07-10T05:48:07Z</time>
      </trkpt>
      <trkpt lat="43.22206" lon="-6.79484">
        <ele>928.7</ele>
        <time>2016-07-10T05:48:13Z</time>
      </trkpt>
      <trkpt lat="43.22206" lon="-6.79498">
        <ele>928.6</ele>
        <time>2016-07-10T05:48:20Z</time>
      </trkpt>
      <trkpt lat="43.22204" lon="-6.79511">
        <ele>928.5</ele>
        <time>2016-07-10T05:48:27Z</time>
      </trkpt>
      <trkpt lat="43.22201" lon="-6.79524">
        <ele>928.4</ele>
        <time>2016-07-10T05:48:35Z</time>
      </trkpt>
      <trkpt lat="43.22198" lon="-6.79536">
        <ele>928</ele>
        <time>2016-07-10T05:48:42Z</time>
      </trkpt>
      <trkpt lat="43.22194" lon="-6.79548">
        <ele>927.6</ele>
        <time>2016-07-10T05:48:49Z</time>
      </trkpt>
      <trkpt lat="43.2219" lon="-6.79559">
        <ele>927.5</ele>
        <time>2016-07-10T05:48:56Z</time>
      </trkpt>
      <trkpt lat="43.22186" lon="-6.79571">
        <ele>927.4</ele>
        <time>2016-07-10T05:49:03Z</time>
      </trkpt>
      <trkpt lat="43.22181" lon="-6.79582">
        <ele>926.9</ele>
        <time>2016-07-10T05:49:10Z</time>
      </trkpt>
      <trkpt lat="43.22175" lon="-6.79594">
        <ele>926.3</ele>
        <time>2016-07-10T05:49:18Z</time>
      </trkpt>
      <trkpt lat="43.22169" lon="-6.79603">
        <ele>925.6</ele>
        <time>2016-07-10T05:49:25Z</time>
      </trkpt>
      <trkpt lat="43.22162" lon="-6.79612">
        <ele>925</ele>
        <time>2016-07-10T05:49:33Z</time>
      </trkpt>
      <trkpt lat="43.22155" lon="-6.79621">
        <ele>924.8</ele>
        <time>2016-07-10T05:49:41Z</time>
      </trkpt>
      <trkpt lat="43.22149" lon="-6.7963">
        <ele>924.3</ele>
        <time>2016-07-10T05:49:48Z</time>
      </trkpt>
      <trkpt lat="43.22141" lon="-6.79639">
        <ele>923.6</ele>
        <time>2016-07-10T05:49:56Z</time>
      </trkpt>
      <trkpt lat="43.22134" lon="-6.79648">
        <ele>922.4</ele>
        <time>2016-07-10T05:50:04Z</time>
      </trkpt>
      <trkpt lat="43.22127" lon="-6.79658">
        <ele>921.7</ele>
        <time>2016-07-10T05:50:12Z</time>
      </trkpt>
      <trkpt lat="43.22119" lon="-6.79667">
        <ele>921</ele>
        <time>2016-07-10T05:50:20Z</time>
      </trkpt>
      <trkpt lat="43.22112" lon="-6.79677">
        <ele>920</ele>
        <time>2016-07-10T05:50:28Z</time>
      </trkpt>
      <trkpt lat="43.22104" lon="-6.79686">
        <ele>919</ele>
        <time>2016-07-10T05:50:35Z</time>
      </trkpt>
      <trkpt lat="43.22098" lon="-6.79696">
        <ele>916.6</ele>
        <time>2016-07-10T05:51:34Z</time>
      </trkpt>
      <trkpt lat="43.2209" lon="-6.79704">
        <ele>916.4</ele>
        <time>2016-07-10T05:51:41Z</time>
      </trkpt>
      <trkpt lat="43.22083" lon="-6.79713">
        <ele>916.2</ele>
        <time>2016-07-10T05:51:49Z</time>
      </trkpt>
      <trkpt lat="43.22075" lon="-6.79721">
        <ele>915.2</ele>
        <time>2016-07-10T05:51:57Z</time>
      </trkpt>
      <trkpt lat="43.22068" lon="-6.79729">
        <ele>914.7</ele>
        <time>2016-07-10T05:52:04Z</time>
      </trkpt>
      <trkpt lat="43.2206" lon="-6.79737">
        <ele>914</ele>
        <time>2016-07-10T05:52:11Z</time>
      </trkpt>
      <trkpt lat="43.22052" lon="-6.79746">
        <ele>913.6</ele>
        <time>2016-07-10T05:52:19Z</time>
      </trkpt>
      <trkpt lat="43.22044" lon="-6.79753">
        <ele>912.5</ele>
        <time>2016-07-10T05:52:27Z</time>
      </trkpt>
      <trkpt lat="43.22035" lon="-6.79759">
        <ele>911.5</ele>
        <time>2016-07-10T05:52:35Z</time>
      </trkpt>
      <trkpt lat="43.22026" lon="-6.79763">
        <ele>911</ele>
        <time>2016-07-10T05:52:43Z</time>
      </trkpt>
      <trkpt lat="43.22016" lon="-6.79768">
        <ele>910.1</ele>
        <time>2016-07-10T05:52:51Z</time>
      </trkpt>
      <trkpt lat="43.22007" lon="-6.79771">
        <ele>909.4</ele>
        <time>2016-07-10T05:52:59Z</time>
      </trkpt>
      <trkpt lat="43.21997" lon="-6.79772">
        <ele>908.3</ele>
        <time>2016-07-10T05:53:07Z</time>
      </trkpt>
      <trkpt lat="43.21988" lon="-6.79769">
        <ele>907.8</ele>
        <time>2016-07-10T05:53:14Z</time>
      </trkpt>
      <trkpt lat="43.21979" lon="-6.79764">
        <ele>907</ele>
        <time>2016-07-10T05:53:24Z</time>
      </trkpt>
      <trkpt lat="43.2197" lon="-6.7976">
        <ele>906.3</ele>
        <time>2016-07-10T05:53:31Z</time>
      </trkpt>
      <trkpt lat="43.21962" lon="-6.79753">
        <ele>905.7</ele>
        <time>2016-07-10T05:53:38Z</time>
      </trkpt>
      <trkpt lat="43.21953" lon="-6.79746">
        <ele>905</ele>
        <time>2016-07-10T05:53:46Z</time>
      </trkpt>
      <trkpt lat="43.21946" lon="-6.79738">
        <ele>904.6</ele>
        <time>2016-07-10T05:53:55Z</time>
      </trkpt>
      <trkpt lat="43.21939" lon="-6.79729">
        <ele>904.3</ele>
        <time>2016-07-10T05:54:04Z</time>
      </trkpt>
      <trkpt lat="43.21931" lon="-6.79722">
        <ele>903.9</ele>
        <time>2016-07-10T05:54:12Z</time>
      </trkpt>
      <trkpt lat="43.21924" lon="-6.79713">
        <ele>903</ele>
        <time>2016-07-10T05:54:20Z</time>
      </trkpt>
      <trkpt lat="43.21916" lon="-6.79707">
        <ele>902.4</ele>
        <time>2016-07-10T05:54:28Z</time>
      </trkpt>
      <trkpt lat="43.21906" lon="-6.79711">
        <ele>902.1</ele>
        <time>2016-07-10T05:54:35Z</time>
      </trkpt>
      <trkpt lat="43.219" lon="-6.79722">
        <ele>901.9</ele>
        <time>2016-07-10T05:54:42Z</time>
      </trkpt>
      <trkpt lat="43.21897" lon="-6.79734">
        <ele>901.5</ele>
        <time>2016-07-10T05:54:50Z</time>
      </trkpt>
      <trkpt lat="43.21895" lon="-6.79747">
        <ele>901.2</ele>
        <time>2016-07-10T05:54:58Z</time>
      </trkpt>
      <trkpt lat="43.21893" lon="-6.7976">
        <ele>901</ele>
        <time>2016-07-10T05:55:05Z</time>
      </trkpt>
      <trkpt lat="43.21891" lon="-6.79772">
        <ele>900.9</ele>
        <time>2016-07-10T05:55:13Z</time>
      </trkpt>
      <trkpt lat="43.21889" lon="-6.79785">
        <ele>900.4</ele>
        <time>2016-07-10T05:55:23Z</time>
      </trkpt>
      <trkpt lat="43.21886" lon="-6.79797">
        <ele>900</ele>
        <time>2016-07-10T05:55:30Z</time>
      </trkpt>
      <trkpt lat="43.21883" lon="-6.7981">
        <ele>899.7</ele>
        <time>2016-07-10T05:55:39Z</time>
      </trkpt>
      <trkpt lat="43.21881" lon="-6.79824">
        <ele>899.5</ele>
        <time>2016-07-10T05:55:46Z</time>
      </trkpt>
      <trkpt lat="43.21879" lon="-6.79837">
        <ele>899.3</ele>
        <time>2016-07-10T05:55:53Z</time>
      </trkpt>
      <trkpt lat="43.21879" lon="-6.7985">
        <ele>898.7</ele>
        <time>2016-07-10T05:56:00Z</time>
      </trkpt>
      <trkpt lat="43.21881" lon="-6.79862">
        <ele>898.3</ele>
        <time>2016-07-10T05:56:08Z</time>
      </trkpt>
      <trkpt lat="43.21887" lon="-6.79873">
        <ele>898.1</ele>
        <time>2016-07-10T05:56:16Z</time>
      </trkpt>
      <trkpt lat="43.21891" lon="-6.79884">
        <ele>898.2</ele>
        <time>2016-07-10T05:56:23Z</time>
      </trkpt>
      <trkpt lat="43.21895" lon="-6.79896">
        <ele>898.2</ele>
        <time>2016-07-10T05:56:30Z</time>
      </trkpt>
      <trkpt lat="43.21897" lon="-6.7991">
        <ele>898.1</ele>
        <time>2016-07-10T05:56:37Z</time>
      </trkpt>
      <trkpt lat="43.21898" lon="-6.79922">
        <ele>898</ele>
        <time>2016-07-10T05:56:43Z</time>
      </trkpt>
      <trkpt lat="43.21899" lon="-6.79936">
        <ele>897.4</ele>
        <time>2016-07-10T05:56:49Z</time>
      </trkpt>
      <trkpt lat="43.219" lon="-6.79949">
        <ele>897</ele>
        <time>2016-07-10T05:56:55Z</time>
      </trkpt>
      <trkpt lat="43.219" lon="-6.79962">
        <ele>896.5</ele>
        <time>2016-07-10T05:57:01Z</time>
      </trkpt>
      <trkpt lat="43.219" lon="-6.79975">
        <ele>895.6</ele>
        <time>2016-07-10T05:57:08Z</time>
      </trkpt>
      <trkpt lat="43.21899" lon="-6.79988">
        <ele>895</ele>
        <time>2016-07-10T05:57:15Z</time>
      </trkpt>
      <trkpt lat="43.21895" lon="-6.8">
        <ele>894.4</ele>
        <time>2016-07-10T05:57:22Z</time>
      </trkpt>
      <trkpt lat="43.21891" lon="-6.80012">
        <ele>893.6</ele>
        <time>2016-07-10T05:57:29Z</time>
      </trkpt>
      <trkpt lat="43.21887" lon="-6.80024">
        <ele>892.9</ele>
        <time>2016-07-10T05:57:36Z</time>
      </trkpt>
      <trkpt lat="43.21883" lon="-6.80035">
        <ele>892</ele>
        <time>2016-07-10T05:57:43Z</time>
      </trkpt>
      <trkpt lat="43.21879" lon="-6.80047">
        <ele>891.1</ele>
        <time>2016-07-10T05:57:50Z</time>
      </trkpt>
      <trkpt lat="43.21874" lon="-6.80058">
        <ele>890.4</ele>
        <time>2016-07-10T05:57:57Z</time>
      </trkpt>
      <trkpt lat="43.2187" lon="-6.80068">
        <ele>889.6</ele>
        <time>2016-07-10T05:58:04Z</time>
      </trkpt>
      <trkpt lat="43.21865" lon="-6.80079">
        <ele>888.4</ele>
        <time>2016-07-10T05:58:12Z</time>
      </trkpt>
      <trkpt lat="43.2186" lon="-6.80091">
        <ele>887.5</ele>
        <time>2016-07-10T05:58:20Z</time>
      </trkpt>
      <trkpt lat="43.21856" lon="-6.80102">
        <ele>886.1</ele>
        <time>2016-07-10T05:58:28Z</time>
      </trkpt>
      <trkpt lat="43.21854" lon="-6.80114">
        <ele>885.1</ele>
        <time>2016-07-10T05:58:38Z</time>
      </trkpt>
      <trkpt lat="43.2185" lon="-6.80127">
        <ele>884.2</ele>
        <time>2016-07-10T05:58:47Z</time>
      </trkpt>
      <trkpt lat="43.21844" lon="-6.80137">
        <ele>883.5</ele>
        <time>2016-07-10T05:58:55Z</time>
      </trkpt>
      <trkpt lat="43.21837" lon="-6.80146">
        <ele>883</ele>
        <time>2016-07-10T05:59:03Z</time>
      </trkpt>
      <trkpt lat="43.21833" lon="-6.80158">
        <ele>882.2</ele>
        <time>2016-07-10T05:59:11Z</time>
      </trkpt>
      <trkpt lat="43.21831" lon="-6.80171">
        <ele>881</ele>
        <time>2016-07-10T05:59:33Z</time>
      </trkpt>
      <trkpt lat="43.21831" lon="-6.80184">
        <ele>880.6</ele>
        <time>2016-07-10T06:00:06Z</time>
      </trkpt>
      <trkpt lat="43.21834" lon="-6.80198">
        <ele>880.2</ele>
        <time>2016-07-10T06:00:15Z</time>
      </trkpt>
      <trkpt lat="43.21838" lon="-6.8021">
        <ele>880</ele>
        <time>2016-07-10T06:00:24Z</time>
      </trkpt>
      <trkpt lat="43.21846" lon="-6.80215">
        <ele>879.7</ele>
        <time>2016-07-10T06:00:34Z</time>
      </trkpt>
      <trkpt lat="43.21848" lon="-6.80228">
        <ele>878.6</ele>
        <time>2016-07-10T06:06:41Z</time>
      </trkpt>
      <trkpt lat="43.21845" lon="-6.80241">
        <ele>878.7</ele>
        <time>2016-07-10T06:06:51Z</time>
      </trkpt>
      <trkpt lat="43.21843" lon="-6.80254">
        <ele>878.8</ele>
        <time>2016-07-10T06:06:59Z</time>
      </trkpt>
      <trkpt lat="43.2184" lon="-6.80267">
        <ele>878.8</ele>
        <time>2016-07-10T06:07:07Z</time>
      </trkpt>
      <trkpt lat="43.21838" lon="-6.8028">
        <ele>878.4</ele>
        <time>2016-07-10T06:07:15Z</time>
      </trkpt>
      <trkpt lat="43.21834" lon="-6.80292">
        <ele>878.2</ele>
        <time>2016-07-10T06:07:23Z</time>
      </trkpt>
      <trkpt lat="43.21832" lon="-6.80305">
        <ele>878.2</ele>
        <time>2016-07-10T06:07:31Z</time>
      </trkpt>
      <trkpt lat="43.21831" lon="-6.80318">
        <ele>878.4</ele>
        <time>2016-07-10T06:07:40Z</time>
      </trkpt>
      <trkpt lat="43.21829" lon="-6.80331">
        <ele>878.8</ele>
        <time>2016-07-10T06:07:49Z</time>
      </trkpt>
      <trkpt lat="43.21827" lon="-6.80344">
        <ele>879.3</ele>
        <time>2016-07-10T06:07:58Z</time>
      </trkpt>
      <trkpt lat="43.21824" lon="-6.80357">
        <ele>879.9</ele>
        <time>2016-07-10T06:08:06Z</time>
      </trkpt>
      <trkpt lat="43.21823" lon="-6.8037">
        <ele>880.3</ele>
        <time>2016-07-10T06:08:15Z</time>
      </trkpt>
      <trkpt lat="43.21825" lon="-6.80383">
        <ele>880.9</ele>
        <time>2016-07-10T06:08:23Z</time>
      </trkpt>
      <trkpt lat="43.2183" lon="-6.80394">
        <ele>881.3</ele>
        <time>2016-07-10T06:08:32Z</time>
      </trkpt>
      <trkpt lat="43.21836" lon="-6.80403">
        <ele>881.8</ele>
        <time>2016-07-10T06:08:41Z</time>
      </trkpt>
      <trkpt lat="43.21846" lon="-6.80408">
        <ele>882.8</ele>
        <time>2016-07-10T06:08:51Z</time>
      </trkpt>
      <trkpt lat="43.21855" lon="-6.80409">
        <ele>883.9</ele>
        <time>2016-07-10T06:09:00Z</time>
      </trkpt>
      <trkpt lat="43.21865" lon="-6.80407">
        <ele>885.1</ele>
        <time>2016-07-10T06:09:09Z</time>
      </trkpt>
      <trkpt lat="43.21875" lon="-6.80404">
        <ele>886</ele>
        <time>2016-07-10T06:09:18Z</time>
      </trkpt>
      <trkpt lat="43.21884" lon="-6.80401">
        <ele>887.2</ele>
        <time>2016-07-10T06:09:27Z</time>
      </trkpt>
      <trkpt lat="43.21894" lon="-6.80399">
        <ele>888.7</ele>
        <time>2016-07-10T06:09:37Z</time>
      </trkpt>
      <trkpt lat="43.21903" lon="-6.80396">
        <ele>889.3</ele>
        <time>2016-07-10T06:09:46Z</time>
      </trkpt>
      <trkpt lat="43.21912" lon="-6.80395">
        <ele>890.4</ele>
        <time>2016-07-10T06:09:55Z</time>
      </trkpt>
      <trkpt lat="43.21922" lon="-6.80393">
        <ele>891.5</ele>
        <time>2016-07-10T06:10:04Z</time>
      </trkpt>
      <trkpt lat="43.21931" lon="-6.80394">
        <ele>892.7</ele>
        <time>2016-07-10T06:10:14Z</time>
      </trkpt>
      <trkpt lat="43.2194" lon="-6.80398">
        <ele>893.8</ele>
        <time>2016-07-10T06:10:24Z</time>
      </trkpt>
      <trkpt lat="43.2195" lon="-6.80403">
        <ele>895.3</ele>
        <time>2016-07-10T06:10:34Z</time>
      </trkpt>
      <trkpt lat="43.21958" lon="-6.80407">
        <ele>896.4</ele>
        <time>2016-07-10T06:10:44Z</time>
      </trkpt>
      <trkpt lat="43.21967" lon="-6.80412">
        <ele>897.3</ele>
        <time>2016-07-10T06:10:54Z</time>
      </trkpt>
      <trkpt lat="43.21976" lon="-6.80416">
        <ele>898.7</ele>
        <time>2016-07-10T06:11:04Z</time>
      </trkpt>
      <trkpt lat="43.21985" lon="-6.8042">
        <ele>900.8</ele>
        <time>2016-07-10T06:11:27Z</time>
      </trkpt>
      <trkpt lat="43.21995" lon="-6.80424">
        <ele>901.6</ele>
        <time>2016-07-10T06:11:38Z</time>
      </trkpt>
      <trkpt lat="43.22003" lon="-6.80428">
        <ele>903.5</ele>
        <time>2016-07-10T06:11:50Z</time>
      </trkpt>
      <trkpt lat="43.22013" lon="-6.80433">
        <ele>905.2</ele>
        <time>2016-07-10T06:12:01Z</time>
      </trkpt>
      <trkpt lat="43.22021" lon="-6.80436">
        <ele>906.2</ele>
        <time>2016-07-10T06:12:12Z</time>
      </trkpt>
      <trkpt lat="43.2203" lon="-6.8044">
        <ele>907.2</ele>
        <time>2016-07-10T06:12:23Z</time>
      </trkpt>
      <trkpt lat="43.22038" lon="-6.80447">
        <ele>909</ele>
        <time>2016-07-10T06:12:37Z</time>
      </trkpt>
      <trkpt lat="43.22047" lon="-6.8045">
        <ele>910.3</ele>
        <time>2016-07-10T06:12:49Z</time>
      </trkpt>
      <trkpt lat="43.22056" lon="-6.80453">
        <ele>911.9</ele>
        <time>2016-07-10T06:13:01Z</time>
      </trkpt>
      <trkpt lat="43.22066" lon="-6.80455">
        <ele>913.3</ele>
        <time>2016-07-10T06:13:11Z</time>
      </trkpt>
      <trkpt lat="43.22075" lon="-6.80458">
        <ele>914.9</ele>
        <time>2016-07-10T06:13:23Z</time>
      </trkpt>
      <trkpt lat="43.22084" lon="-6.80462">
        <ele>916.6</ele>
        <time>2016-07-10T06:13:34Z</time>
      </trkpt>
      <trkpt lat="43.22093" lon="-6.80464">
        <ele>918</ele>
        <time>2016-07-10T06:13:45Z</time>
      </trkpt>
      <trkpt lat="43.22102" lon="-6.80467">
        <ele>919.6</ele>
        <time>2016-07-10T06:13:55Z</time>
      </trkpt>
      <trkpt lat="43.22111" lon="-6.80469">
        <ele>921.2</ele>
        <time>2016-07-10T06:14:05Z</time>
      </trkpt>
      <trkpt lat="43.22121" lon="-6.80471">
        <ele>924.4</ele>
        <time>2016-07-10T06:14:27Z</time>
      </trkpt>
      <trkpt lat="43.2213" lon="-6.80473">
        <ele>925.3</ele>
        <time>2016-07-10T06:14:38Z</time>
      </trkpt>
      <trkpt lat="43.22139" lon="-6.80476">
        <ele>926.2</ele>
        <time>2016-07-10T06:14:48Z</time>
      </trkpt>
      <trkpt lat="43.22148" lon="-6.80479">
        <ele>927.2</ele>
        <time>2016-07-10T06:14:58Z</time>
      </trkpt>
      <trkpt lat="43.22157" lon="-6.80485">
        <ele>928</ele>
        <time>2016-07-10T06:15:08Z</time>
      </trkpt>
      <trkpt lat="43.22165" lon="-6.80492">
        <ele>928.9</ele>
        <time>2016-07-10T06:15:17Z</time>
      </trkpt>
      <trkpt lat="43.22172" lon="-6.80501">
        <ele>930.2</ele>
        <time>2016-07-10T06:15:26Z</time>
      </trkpt>
      <trkpt lat="43.22179" lon="-6.8051">
        <ele>931.7</ele>
        <time>2016-07-10T06:15:38Z</time>
      </trkpt>
      <trkpt lat="43.22184" lon="-6.80521">
        <ele>932.9</ele>
        <time>2016-07-10T06:15:49Z</time>
      </trkpt>
      <trkpt lat="43.2219" lon="-6.8053">
        <ele>934.2</ele>
        <time>2016-07-10T06:16:00Z</time>
      </trkpt>
      <trkpt lat="43.22196" lon="-6.8054">
        <ele>935.6</ele>
        <time>2016-07-10T06:16:11Z</time>
      </trkpt>
      <trkpt lat="43.22201" lon="-6.80551">
        <ele>936.6</ele>
        <time>2016-07-10T06:16:22Z</time>
      </trkpt>
      <trkpt lat="43.22207" lon="-6.80561">
        <ele>938.4</ele>
        <time>2016-07-10T06:16:34Z</time>
      </trkpt>
      <trkpt lat="43.22212" lon="-6.80572">
        <ele>940.1</ele>
        <time>2016-07-10T06:16:46Z</time>
      </trkpt>
      <trkpt lat="43.22219" lon="-6.8058">
        <ele>942.2</ele>
        <time>2016-07-10T06:17:04Z</time>
      </trkpt>
      <trkpt lat="43.22226" lon="-6.80588">
        <ele>943.1</ele>
        <time>2016-07-10T06:17:17Z</time>
      </trkpt>
      <trkpt lat="43.22236" lon="-6.80592">
        <ele>944.4</ele>
        <time>2016-07-10T06:17:28Z</time>
      </trkpt>
      <trkpt lat="43.22245" lon="-6.80594">
        <ele>945.8</ele>
        <time>2016-07-10T06:17:38Z</time>
      </trkpt>
      <trkpt lat="43.22255" lon="-6.80594">
        <ele>947.3</ele>
        <time>2016-07-10T06:17:49Z</time>
      </trkpt>
      <trkpt lat="43.22264" lon="-6.80594">
        <ele>948</ele>
        <time>2016-07-10T06:17:58Z</time>
      </trkpt>
      <trkpt lat="43.22274" lon="-6.80594">
        <ele>949.3</ele>
        <time>2016-07-10T06:18:08Z</time>
      </trkpt>
      <trkpt lat="43.22284" lon="-6.80593">
        <ele>950.7</ele>
        <time>2016-07-10T06:18:18Z</time>
      </trkpt>
      <trkpt lat="43.22293" lon="-6.80592">
        <ele>952</ele>
        <time>2016-07-10T06:18:28Z</time>
      </trkpt>
      <trkpt lat="43.22302" lon="-6.80593">
        <ele>952.8</ele>
        <time>2016-07-10T06:18:37Z</time>
      </trkpt>
      <trkpt lat="43.22312" lon="-6.80595">
        <ele>954.1</ele>
        <time>2016-07-10T06:18:48Z</time>
      </trkpt>
      <trkpt lat="43.22321" lon="-6.80598">
        <ele>955.3</ele>
        <time>2016-07-10T06:18:58Z</time>
      </trkpt>
      <trkpt lat="43.2233" lon="-6.80601">
        <ele>956.5</ele>
        <time>2016-07-10T06:19:07Z</time>
      </trkpt>
      <trkpt lat="43.22339" lon="-6.80606">
        <ele>957.9</ele>
        <time>2016-07-10T06:19:18Z</time>
      </trkpt>
      <trkpt lat="43.22347" lon="-6.80611">
        <ele>959.5</ele>
        <time>2016-07-10T06:19:30Z</time>
      </trkpt>
      <trkpt lat="43.22355" lon="-6.80618">
        <ele>963.2</ele>
        <time>2016-07-10T06:20:11Z</time>
      </trkpt>
      <trkpt lat="43.22364" lon="-6.80622">
        <ele>963.8</ele>
        <time>2016-07-10T06:20:22Z</time>
      </trkpt>
      <trkpt lat="43.22373" lon="-6.80626">
        <ele>964.6</ele>
        <time>2016-07-10T06:20:32Z</time>
      </trkpt>
      <trkpt lat="43.22383" lon="-6.8063">
        <ele>966.1</ele>
        <time>2016-07-10T06:20:43Z</time>
      </trkpt>
      <trkpt lat="43.22392" lon="-6.80633">
        <ele>967.8</ele>
        <time>2016-07-10T06:20:54Z</time>
      </trkpt>
      <trkpt lat="43.22401" lon="-6.80636">
        <ele>968.8</ele>
        <time>2016-07-10T06:21:05Z</time>
      </trkpt>
      <trkpt lat="43.2241" lon="-6.8064">
        <ele>970.7</ele>
        <time>2016-07-10T06:21:16Z</time>
      </trkpt>
      <trkpt lat="43.22419" lon="-6.80642">
        <ele>972.1</ele>
        <time>2016-07-10T06:21:26Z</time>
      </trkpt>
      <trkpt lat="43.22428" lon="-6.80646">
        <ele>973.9</ele>
        <time>2016-07-10T06:21:37Z</time>
      </trkpt>
      <trkpt lat="43.22437" lon="-6.8065">
        <ele>975.6</ele>
        <time>2016-07-10T06:21:48Z</time>
      </trkpt>
      <trkpt lat="43.22446" lon="-6.80654">
        <ele>977</ele>
        <time>2016-07-10T06:21:59Z</time>
      </trkpt>
      <trkpt lat="43.22455" lon="-6.80658">
        <ele>978.6</ele>
        <time>2016-07-10T06:22:10Z</time>
      </trkpt>
      <trkpt lat="43.22463" lon="-6.80665">
        <ele>980.3</ele>
        <time>2016-07-10T06:22:25Z</time>
      </trkpt>
      <trkpt lat="43.2247" lon="-6.80672">
        <ele>981.5</ele>
        <time>2016-07-10T06:22:37Z</time>
      </trkpt>
      <trkpt lat="43.22478" lon="-6.8068">
        <ele>982.9</ele>
        <time>2016-07-10T06:22:48Z</time>
      </trkpt>
      <trkpt lat="43.22485" lon="-6.80688">
        <ele>984.4</ele>
        <time>2016-07-10T06:22:59Z</time>
      </trkpt>
      <trkpt lat="43.22493" lon="-6.80694">
        <ele>986.6</ele>
        <time>2016-07-10T06:23:17Z</time>
      </trkpt>
      <trkpt lat="43.22502" lon="-6.80701">
        <ele>987.7</ele>
        <time>2016-07-10T06:23:33Z</time>
      </trkpt>
      <trkpt lat="43.22511" lon="-6.80702">
        <ele>988.9</ele>
        <time>2016-07-10T06:23:45Z</time>
      </trkpt>
      <trkpt lat="43.22521" lon="-6.80702">
        <ele>990.9</ele>
        <time>2016-07-10T06:23:57Z</time>
      </trkpt>
      <trkpt lat="43.2253" lon="-6.807">
        <ele>991.9</ele>
        <time>2016-07-10T06:24:08Z</time>
      </trkpt>
      <trkpt lat="43.22539" lon="-6.80698">
        <ele>993.4</ele>
        <time>2016-07-10T06:24:19Z</time>
      </trkpt>
      <trkpt lat="43.22549" lon="-6.80696">
        <ele>994.8</ele>
        <time>2016-07-10T06:24:30Z</time>
      </trkpt>
      <trkpt lat="43.22559" lon="-6.80694">
        <ele>996.1</ele>
        <time>2016-07-10T06:24:41Z</time>
      </trkpt>
      <trkpt lat="43.22568" lon="-6.80693">
        <ele>997.6</ele>
        <time>2016-07-10T06:24:51Z</time>
      </trkpt>
      <trkpt lat="43.22577" lon="-6.80694">
        <ele>998.9</ele>
        <time>2016-07-10T06:25:01Z</time>
      </trkpt>
      <trkpt lat="43.22586" lon="-6.80697">
        <ele>1000.7</ele>
        <time>2016-07-10T06:25:12Z</time>
      </trkpt>
      <trkpt lat="43.22595" lon="-6.80699">
        <ele>1002.2</ele>
        <time>2016-07-10T06:25:23Z</time>
      </trkpt>
      <trkpt lat="43.22604" lon="-6.80703">
        <ele>1003.4</ele>
        <time>2016-07-10T06:25:38Z</time>
      </trkpt>
      <trkpt lat="43.22613" lon="-6.80706">
        <ele>1004.8</ele>
        <time>2016-07-10T06:25:49Z</time>
      </trkpt>
      <trkpt lat="43.22622" lon="-6.80708">
        <ele>1006</ele>
        <time>2016-07-10T06:26:00Z</time>
      </trkpt>
      <trkpt lat="43.2263" lon="-6.80711">
        <ele>1007.5</ele>
        <time>2016-07-10T06:26:10Z</time>
      </trkpt>
      <trkpt lat="43.2264" lon="-6.80714">
        <ele>1008.7</ele>
        <time>2016-07-10T06:26:21Z</time>
      </trkpt>
      <trkpt lat="43.22649" lon="-6.80715">
        <ele>1010</ele>
        <time>2016-07-10T06:26:32Z</time>
      </trkpt>
      <trkpt lat="43.22658" lon="-6.80715">
        <ele>1011.5</ele>
        <time>2016-07-10T06:26:43Z</time>
      </trkpt>
      <trkpt lat="43.22668" lon="-6.80716">
        <ele>1012.8</ele>
        <time>2016-07-10T06:26:55Z</time>
      </trkpt>
      <trkpt lat="43.22678" lon="-6.80717">
        <ele>1014.5</ele>
        <time>2016-07-10T06:27:06Z</time>
      </trkpt>
      <trkpt lat="43.22686" lon="-6.80723">
        <ele>1016.4</ele>
        <time>2016-07-10T06:27:17Z</time>
      </trkpt>
      <trkpt lat="43.2269" lon="-6.80735">
        <ele>1018.3</ele>
        <time>2016-07-10T06:27:33Z</time>
      </trkpt>
      <trkpt lat="43.22689" lon="-6.80748">
        <ele>1018.9</ele>
        <time>2016-07-10T06:27:43Z</time>
      </trkpt>
      <trkpt lat="43.22685" lon="-6.8076">
        <ele>1019.7</ele>
        <time>2016-07-10T06:27:52Z</time>
      </trkpt>
      <trkpt lat="43.22681" lon="-6.80771">
        <ele>1020.8</ele>
        <time>2016-07-10T06:28:01Z</time>
      </trkpt>
      <trkpt lat="43.22676" lon="-6.80782">
        <ele>1022.2</ele>
        <time>2016-07-10T06:28:10Z</time>
      </trkpt>
      <trkpt lat="43.22671" lon="-6.80793">
        <ele>1023.1</ele>
        <time>2016-07-10T06:28:19Z</time>
      </trkpt>
      <trkpt lat="43.22667" lon="-6.80804">
        <ele>1023.9</ele>
        <time>2016-07-10T06:28:29Z</time>
      </trkpt>
      <trkpt lat="43.22662" lon="-6.80816">
        <ele>1024.9</ele>
        <time>2016-07-10T06:28:39Z</time>
      </trkpt>
      <trkpt lat="43.22658" lon="-6.80828">
        <ele>1025.7</ele>
        <time>2016-07-10T06:28:49Z</time>
      </trkpt>
      <trkpt lat="43.22654" lon="-6.8084">
        <ele>1026.7</ele>
        <time>2016-07-10T06:28:59Z</time>
      </trkpt>
      <trkpt lat="43.2265" lon="-6.80851">
        <ele>1028.4</ele>
        <time>2016-07-10T06:29:10Z</time>
      </trkpt>
      <trkpt lat="43.22647" lon="-6.80863">
        <ele>1029.8</ele>
        <time>2016-07-10T06:29:20Z</time>
      </trkpt>
      <trkpt lat="43.22642" lon="-6.80874">
        <ele>1030.5</ele>
        <time>2016-07-10T06:29:30Z</time>
      </trkpt>
      <trkpt lat="43.22637" lon="-6.80884">
        <ele>1031.6</ele>
        <time>2016-07-10T06:29:40Z</time>
      </trkpt>
      <trkpt lat="43.22632" lon="-6.80895">
        <ele>1032.6</ele>
        <time>2016-07-10T06:29:50Z</time>
      </trkpt>
      <trkpt lat="43.22628" lon="-6.80906">
        <ele>1034.3</ele>
        <time>2016-07-10T06:30:11Z</time>
      </trkpt>
      <trkpt lat="43.22624" lon="-6.80918">
        <ele>1034.8</ele>
        <time>2016-07-10T06:30:21Z</time>
      </trkpt>
      <trkpt lat="43.2262" lon="-6.80931">
        <ele>1036.2</ele>
        <time>2016-07-10T06:30:31Z</time>
      </trkpt>
      <trkpt lat="43.22619" lon="-6.80944">
        <ele>1037.4</ele>
        <time>2016-07-10T06:30:41Z</time>
      </trkpt>
      <trkpt lat="43.22619" lon="-6.80957">
        <ele>1038.2</ele>
        <time>2016-07-10T06:30:51Z</time>
      </trkpt>
      <trkpt lat="43.2262" lon="-6.80971">
        <ele>1038.9</ele>
        <time>2016-07-10T06:31:01Z</time>
      </trkpt>
      <trkpt lat="43.22621" lon="-6.80984">
        <ele>1039.5</ele>
        <time>2016-07-10T06:31:10Z</time>
      </trkpt>
      <trkpt lat="43.22621" lon="-6.80997">
        <ele>1040.3</ele>
        <time>2016-07-10T06:31:19Z</time>
      </trkpt>
      <trkpt lat="43.2262" lon="-6.8101">
        <ele>1041.1</ele>
        <time>2016-07-10T06:31:27Z</time>
      </trkpt>
      <trkpt lat="43.22617" lon="-6.81023">
        <ele>1042</ele>
        <time>2016-07-10T06:31:36Z</time>
      </trkpt>
      <trkpt lat="43.22615" lon="-6.81035">
        <ele>1042.6</ele>
        <time>2016-07-10T06:31:44Z</time>
      </trkpt>
      <trkpt lat="43.22612" lon="-6.81048">
        <ele>1043.1</ele>
        <time>2016-07-10T06:31:53Z</time>
      </trkpt>
      <trkpt lat="43.22609" lon="-6.81059">
        <ele>1043.5</ele>
        <time>2016-07-10T06:32:01Z</time>
      </trkpt>
      <trkpt lat="43.22606" lon="-6.81071">
        <ele>1044.1</ele>
        <time>2016-07-10T06:32:09Z</time>
      </trkpt>
      <trkpt lat="43.22603" lon="-6.81085">
        <ele>1044.6</ele>
        <time>2016-07-10T06:32:18Z</time>
      </trkpt>
      <trkpt lat="43.226" lon="-6.81097">
        <ele>1045</ele>
        <time>2016-07-10T06:32:26Z</time>
      </trkpt>
      <trkpt lat="43.22596" lon="-6.81109">
        <ele>1045.5</ele>
        <time>2016-07-10T06:32:34Z</time>
      </trkpt>
      <trkpt lat="43.22592" lon="-6.8112">
        <ele>1045.9</ele>
        <time>2016-07-10T06:32:42Z</time>
      </trkpt>
      <trkpt lat="43.22588" lon="-6.81133">
        <ele>1046.1</ele>
        <time>2016-07-10T06:32:51Z</time>
      </trkpt>
      <trkpt lat="43.22584" lon="-6.81145">
        <ele>1046.5</ele>
        <time>2016-07-10T06:32:59Z</time>
      </trkpt>
      <trkpt lat="43.2258" lon="-6.81157">
        <ele>1046.8</ele>
        <time>2016-07-10T06:33:07Z</time>
      </trkpt>
      <trkpt lat="43.22576" lon="-6.8117">
        <ele>1047.2</ele>
        <time>2016-07-10T06:33:15Z</time>
      </trkpt>
      <trkpt lat="43.22573" lon="-6.81182">
        <ele>1047.6</ele>
        <time>2016-07-10T06:33:23Z</time>
      </trkpt>
      <trkpt lat="43.2257" lon="-6.81194">
        <ele>1047.7</ele>
        <time>2016-07-10T06:33:31Z</time>
      </trkpt>
      <trkpt lat="43.22568" lon="-6.81207">
        <ele>1047.5</ele>
        <time>2016-07-10T06:33:41Z</time>
      </trkpt>
      <trkpt lat="43.22564" lon="-6.81219">
        <ele>1047.4</ele>
        <time>2016-07-10T06:33:53Z</time>
      </trkpt>
      <trkpt lat="43.2256" lon="-6.81231">
        <ele>1047.2</ele>
        <time>2016-07-10T06:34:01Z</time>
      </trkpt>
      <trkpt lat="43.22555" lon="-6.81243">
        <ele>1047.2</ele>
        <time>2016-07-10T06:34:09Z</time>
      </trkpt>
      <trkpt lat="43.22552" lon="-6.81256">
        <ele>1047.1</ele>
        <time>2016-07-10T06:34:17Z</time>
      </trkpt>
      <trkpt lat="43.22547" lon="-6.81267">
        <ele>1047.1</ele>
        <time>2016-07-10T06:34:25Z</time>
      </trkpt>
      <trkpt lat="43.22543" lon="-6.81278">
        <ele>1047.1</ele>
        <time>2016-07-10T06:34:33Z</time>
      </trkpt>
      <trkpt lat="43.22539" lon="-6.8129">
        <ele>1046.9</ele>
        <time>2016-07-10T06:34:41Z</time>
      </trkpt>
      <trkpt lat="43.22535" lon="-6.81302">
        <ele>1046.8</ele>
        <time>2016-07-10T06:34:49Z</time>
      </trkpt>
      <trkpt lat="43.22531" lon="-6.81313">
        <ele>1046.5</ele>
        <time>2016-07-10T06:34:57Z</time>
      </trkpt>
      <trkpt lat="43.22527" lon="-6.81325">
        <ele>1046.3</ele>
        <time>2016-07-10T06:35:05Z</time>
      </trkpt>
      <trkpt lat="43.22523" lon="-6.81338">
        <ele>1045.9</ele>
        <time>2016-07-10T06:35:13Z</time>
      </trkpt>
      <trkpt lat="43.22519" lon="-6.8135">
        <ele>1045.3</ele>
        <time>2016-07-10T06:35:21Z</time>
      </trkpt>
      <trkpt lat="43.22515" lon="-6.81362">
        <ele>1045</ele>
        <time>2016-07-10T06:35:29Z</time>
      </trkpt>
      <trkpt lat="43.22511" lon="-6.81374">
        <ele>1044.7</ele>
        <time>2016-07-10T06:35:37Z</time>
      </trkpt>
      <trkpt lat="43.22506" lon="-6.81386">
        <ele>1044.3</ele>
        <time>2016-07-10T06:35:45Z</time>
      </trkpt>
      <trkpt lat="43.22503" lon="-6.814">
        <ele>1043.9</ele>
        <time>2016-07-10T06:35:53Z</time>
      </trkpt>
      <trkpt lat="43.22499" lon="-6.81411">
        <ele>1043.4</ele>
        <time>2016-07-10T06:36:00Z</time>
      </trkpt>
      <trkpt lat="43.22495" lon="-6.81422">
        <ele>1043.1</ele>
        <time>2016-07-10T06:36:07Z</time>
      </trkpt>
      <trkpt lat="43.22491" lon="-6.81434">
        <ele>1042.9</ele>
        <time>2016-07-10T06:36:14Z</time>
      </trkpt>
      <trkpt lat="43.22487" lon="-6.81446">
        <ele>1042.8</ele>
        <time>2016-07-10T06:36:21Z</time>
      </trkpt>
      <trkpt lat="43.22483" lon="-6.81458">
        <ele>1042.7</ele>
        <time>2016-07-10T06:36:28Z</time>
      </trkpt>
      <trkpt lat="43.22479" lon="-6.81471">
        <ele>1042.6</ele>
        <time>2016-07-10T06:36:35Z</time>
      </trkpt>
      <trkpt lat="43.22475" lon="-6.81483">
        <ele>1042.5</ele>
        <time>2016-07-10T06:36:42Z</time>
      </trkpt>
      <trkpt lat="43.22471" lon="-6.81495">
        <ele>1042.5</ele>
        <time>2016-07-10T06:36:49Z</time>
      </trkpt>
      <trkpt lat="43.22466" lon="-6.81508">
        <ele>1042.4</ele>
        <time>2016-07-10T06:36:56Z</time>
      </trkpt>
      <trkpt lat="43.22461" lon="-6.8152">
        <ele>1042.2</ele>
        <time>2016-07-10T06:37:03Z</time>
      </trkpt>
      <trkpt lat="43.22457" lon="-6.81532">
        <ele>1042.2</ele>
        <time>2016-07-10T06:37:10Z</time>
      </trkpt>
      <trkpt lat="43.22454" lon="-6.81545">
        <ele>1041.6</ele>
        <time>2016-07-10T06:37:17Z</time>
      </trkpt>
      <trkpt lat="43.22449" lon="-6.81556">
        <ele>1041.2</ele>
        <time>2016-07-10T06:37:24Z</time>
      </trkpt>
      <trkpt lat="43.22445" lon="-6.81568">
        <ele>1040.9</ele>
        <time>2016-07-10T06:37:31Z</time>
      </trkpt>
      <trkpt lat="43.2244" lon="-6.8158">
        <ele>1040.4</ele>
        <time>2016-07-10T06:37:38Z</time>
      </trkpt>
      <trkpt lat="43.22436" lon="-6.81591">
        <ele>1040</ele>
        <time>2016-07-10T06:37:45Z</time>
      </trkpt>
      <trkpt lat="43.22432" lon="-6.81603">
        <ele>1039.6</ele>
        <time>2016-07-10T06:37:52Z</time>
      </trkpt>
      <trkpt lat="43.22428" lon="-6.81615">
        <ele>1039.3</ele>
        <time>2016-07-10T06:37:59Z</time>
      </trkpt>
      <trkpt lat="43.22424" lon="-6.81626">
        <ele>1038.7</ele>
        <time>2016-07-10T06:38:06Z</time>
      </trkpt>
      <trkpt lat="43.22419" lon="-6.81638">
        <ele>1038.5</ele>
        <time>2016-07-10T06:38:13Z</time>
      </trkpt>
      <trkpt lat="43.22415" lon="-6.81649">
        <ele>1038</ele>
        <time>2016-07-10T06:38:20Z</time>
      </trkpt>
      <trkpt lat="43.22411" lon="-6.81661">
        <ele>1037.4</ele>
        <time>2016-07-10T06:38:27Z</time>
      </trkpt>
      <trkpt lat="43.22407" lon="-6.81674">
        <ele>1036.8</ele>
        <time>2016-07-10T06:38:34Z</time>
      </trkpt>
      <trkpt lat="43.22406" lon="-6.81687">
        <ele>1036.3</ele>
        <time>2016-07-10T06:38:41Z</time>
      </trkpt>
      <trkpt lat="43.22408" lon="-6.81701">
        <ele>1035.8</ele>
        <time>2016-07-10T06:38:47Z</time>
      </trkpt>
      <trkpt lat="43.2241" lon="-6.81714">
        <ele>1035.5</ele>
        <time>2016-07-10T06:38:50Z</time>
      </trkpt>
      <trkpt lat="43.2241" lon="-6.8173">
        <ele>1035.1</ele>
        <time>2016-07-10T06:38:53Z</time>
      </trkpt>
      <trkpt lat="43.22412" lon="-6.81748">
        <ele>1034.4</ele>
        <time>2016-07-10T06:38:56Z</time>
      </trkpt>
      <trkpt lat="43.22414" lon="-6.8176">
        <ele>1033.8</ele>
        <time>2016-07-10T06:38:58Z</time>
      </trkpt>
      <trkpt lat="43.22417" lon="-6.81777">
        <ele>1032.9</ele>
        <time>2016-07-10T06:39:01Z</time>
      </trkpt>
      <trkpt lat="43.22418" lon="-6.81791">
        <ele>1031.7</ele>
        <time>2016-07-10T06:39:04Z</time>
      </trkpt>
      <trkpt lat="43.22423" lon="-6.81803">
        <ele>1024.8</ele>
        <time>2016-07-10T06:39:32Z</time>
      </trkpt>
      <trkpt lat="43.22424" lon="-6.81816">
        <ele>1023.9</ele>
        <time>2016-07-10T06:39:40Z</time>
      </trkpt>
      <trkpt lat="43.22426" lon="-6.81828">
        <ele>1023.2</ele>
        <time>2016-07-10T06:39:48Z</time>
      </trkpt>
      <trkpt lat="43.22428" lon="-6.81841">
        <ele>1021.6</ele>
        <time>2016-07-10T06:39:57Z</time>
      </trkpt>
      <trkpt lat="43.22431" lon="-6.81854">
        <ele>1020.2</ele>
        <time>2016-07-10T06:40:05Z</time>
      </trkpt>
      <trkpt lat="43.22432" lon="-6.81867">
        <ele>1019.1</ele>
        <time>2016-07-10T06:40:13Z</time>
      </trkpt>
      <trkpt lat="43.22435" lon="-6.81879">
        <ele>1017.3</ele>
        <time>2016-07-10T06:40:21Z</time>
      </trkpt>
      <trkpt lat="43.22436" lon="-6.81892">
        <ele>1014.7</ele>
        <time>2016-07-10T06:40:36Z</time>
      </trkpt>
      <trkpt lat="43.22439" lon="-6.81904">
        <ele>1012.6</ele>
        <time>2016-07-10T06:41:01Z</time>
      </trkpt>
      <trkpt lat="43.22442" lon="-6.81917">
        <ele>1012</ele>
        <time>2016-07-10T06:41:10Z</time>
      </trkpt>
      <trkpt lat="43.22447" lon="-6.81928">
        <ele>1011.2</ele>
        <time>2016-07-10T06:41:18Z</time>
      </trkpt>
      <trkpt lat="43.22453" lon="-6.81939">
        <ele>1010.4</ele>
        <time>2016-07-10T06:41:27Z</time>
      </trkpt>
      <trkpt lat="43.22459" lon="-6.81949">
        <ele>1009.1</ele>
        <time>2016-07-10T06:41:35Z</time>
      </trkpt>
      <trkpt lat="43.22466" lon="-6.81958">
        <ele>1007.6</ele>
        <time>2016-07-10T06:41:44Z</time>
      </trkpt>
      <trkpt lat="43.22472" lon="-6.81968">
        <ele>1006.7</ele>
        <time>2016-07-10T06:41:52Z</time>
      </trkpt>
      <trkpt lat="43.22478" lon="-6.81979">
        <ele>1005.6</ele>
        <time>2016-07-10T06:42:00Z</time>
      </trkpt>
      <trkpt lat="43.22482" lon="-6.81991">
        <ele>1004.6</ele>
        <time>2016-07-10T06:42:08Z</time>
      </trkpt>
      <trkpt lat="43.22487" lon="-6.82002">
        <ele>1003.5</ele>
        <time>2016-07-10T06:42:17Z</time>
      </trkpt>
      <trkpt lat="43.22492" lon="-6.82013">
        <ele>1002</ele>
        <time>2016-07-10T06:42:26Z</time>
      </trkpt>
      <trkpt lat="43.22499" lon="-6.82024">
        <ele>1000.8</ele>
        <time>2016-07-10T06:42:34Z</time>
      </trkpt>
      <trkpt lat="43.22503" lon="-6.82035">
        <ele>999.6</ele>
        <time>2016-07-10T06:42:43Z</time>
      </trkpt>
      <trkpt lat="43.22506" lon="-6.82046">
        <ele>998.5</ele>
        <time>2016-07-10T06:42:51Z</time>
      </trkpt>
      <trkpt lat="43.22507" lon="-6.8206">
        <ele>996.8</ele>
        <time>2016-07-10T06:42:59Z</time>
      </trkpt>
      <trkpt lat="43.22508" lon="-6.82073">
        <ele>995.8</ele>
        <time>2016-07-10T06:43:06Z</time>
      </trkpt>
      <trkpt lat="43.22509" lon="-6.82086">
        <ele>994.4</ele>
        <time>2016-07-10T06:43:14Z</time>
      </trkpt>
      <trkpt lat="43.2251" lon="-6.82099">
        <ele>993.2</ele>
        <time>2016-07-10T06:43:22Z</time>
      </trkpt>
      <trkpt lat="43.22508" lon="-6.82111">
        <ele>992.5</ele>
        <time>2016-07-10T06:43:31Z</time>
      </trkpt>
      <trkpt lat="43.22504" lon="-6.82123">
        <ele>991.4</ele>
        <time>2016-07-10T06:43:42Z</time>
      </trkpt>
      <trkpt lat="43.22503" lon="-6.82137">
        <ele>990.2</ele>
        <time>2016-07-10T06:43:57Z</time>
      </trkpt>
      <trkpt lat="43.22503" lon="-6.82149">
        <ele>989.5</ele>
        <time>2016-07-10T06:44:05Z</time>
      </trkpt>
      <trkpt lat="43.22499" lon="-6.82162">
        <ele>987.2</ele>
        <time>2016-07-10T06:44:45Z</time>
      </trkpt>
      <trkpt lat="43.22494" lon="-6.82173">
        <ele>987.1</ele>
        <time>2016-07-10T06:44:53Z</time>
      </trkpt>
      <trkpt lat="43.22488" lon="-6.82182">
        <ele>986.6</ele>
        <time>2016-07-10T06:45:00Z</time>
      </trkpt>
      <trkpt lat="43.22482" lon="-6.82192">
        <ele>985.2</ele>
        <time>2016-07-10T06:45:30Z</time>
      </trkpt>
      <trkpt lat="43.22481" lon="-6.82205">
        <ele>984.9</ele>
        <time>2016-07-10T06:45:55Z</time>
      </trkpt>
      <trkpt lat="43.22479" lon="-6.82217">
        <ele>984.1</ele>
        <time>2016-07-10T06:46:08Z</time>
      </trkpt>
      <trkpt lat="43.22481" lon="-6.82229">
        <ele>984.2</ele>
        <time>2016-07-10T06:46:36Z</time>
      </trkpt>
      <trkpt lat="43.22483" lon="-6.82241">
        <ele>984</ele>
        <time>2016-07-10T06:46:44Z</time>
      </trkpt>
      <trkpt lat="43.22485" lon="-6.82255">
        <ele>983.7</ele>
        <time>2016-07-10T06:46:53Z</time>
      </trkpt>
      <trkpt lat="43.22487" lon="-6.82268">
        <ele>983.4</ele>
        <time>2016-07-10T06:47:02Z</time>
      </trkpt>
      <trkpt lat="43.2249" lon="-6.82281">
        <ele>983.1</ele>
        <time>2016-07-10T06:47:11Z</time>
      </trkpt>
      <trkpt lat="43.22495" lon="-6.82292">
        <ele>982.3</ele>
        <time>2016-07-10T06:47:29Z</time>
      </trkpt>
      <trkpt lat="43.22502" lon="-6.82302">
        <ele>982.1</ele>
        <time>2016-07-10T06:47:46Z</time>
      </trkpt>
      <trkpt lat="43.22505" lon="-6.82314">
        <ele>981.7</ele>
        <time>2016-07-10T06:47:54Z</time>
      </trkpt>
      <trkpt lat="43.22506" lon="-6.82327">
        <ele>981.2</ele>
        <time>2016-07-10T06:48:02Z</time>
      </trkpt>
      <trkpt lat="43.22505" lon="-6.8234">
        <ele>980.6</ele>
        <time>2016-07-10T06:48:11Z</time>
      </trkpt>
      <trkpt lat="43.22498" lon="-6.8235">
        <ele>979.1</ele>
        <time>2016-07-10T06:48:21Z</time>
      </trkpt>
      <trkpt lat="43.22491" lon="-6.82359">
        <ele>977.4</ele>
        <time>2016-07-10T06:48:31Z</time>
      </trkpt>
      <trkpt lat="43.22482" lon="-6.82365">
        <ele>975.6</ele>
        <time>2016-07-10T06:48:41Z</time>
      </trkpt>
      <trkpt lat="43.22474" lon="-6.82369">
        <ele>974.2</ele>
        <time>2016-07-10T06:48:49Z</time>
      </trkpt>
      <trkpt lat="43.22468" lon="-6.82379">
        <ele>971.5</ele>
        <time>2016-07-10T06:49:12Z</time>
      </trkpt>
      <trkpt lat="43.22459" lon="-6.82381">
        <ele>969.8</ele>
        <time>2016-07-10T06:49:31Z</time>
      </trkpt>
      <trkpt lat="43.2245" lon="-6.82387">
        <ele>969</ele>
        <time>2016-07-10T06:49:45Z</time>
      </trkpt>
      <trkpt lat="43.22441" lon="-6.82391">
        <ele>966.4</ele>
        <time>2016-07-10T06:50:12Z</time>
      </trkpt>
      <trkpt lat="43.22434" lon="-6.82398">
        <ele>965.1</ele>
        <time>2016-07-10T06:50:24Z</time>
      </trkpt>
      <trkpt lat="43.22431" lon="-6.8241">
        <ele>963.8</ele>
        <time>2016-07-10T06:50:34Z</time>
      </trkpt>
      <trkpt lat="43.22433" lon="-6.82423">
        <ele>962.4</ele>
        <time>2016-07-10T06:50:43Z</time>
      </trkpt>
      <trkpt lat="43.22438" lon="-6.82434">
        <ele>961.5</ele>
        <time>2016-07-10T06:50:52Z</time>
      </trkpt>
      <trkpt lat="43.22443" lon="-6.82445">
        <ele>960.1</ele>
        <time>2016-07-10T06:51:02Z</time>
      </trkpt>
      <trkpt lat="43.22448" lon="-6.82457">
        <ele>959.2</ele>
        <time>2016-07-10T06:51:11Z</time>
      </trkpt>
      <trkpt lat="43.22455" lon="-6.82465">
        <ele>958.2</ele>
        <time>2016-07-10T06:51:20Z</time>
      </trkpt>
      <trkpt lat="43.22464" lon="-6.82471">
        <ele>957.3</ele>
        <time>2016-07-10T06:51:29Z</time>
      </trkpt>
      <trkpt lat="43.22471" lon="-6.82479">
        <ele>956.1</ele>
        <time>2016-07-10T06:51:38Z</time>
      </trkpt>
      <trkpt lat="43.22478" lon="-6.82487">
        <ele>954.5</ele>
        <time>2016-07-10T06:51:47Z</time>
      </trkpt>
      <trkpt lat="43.22482" lon="-6.82499">
        <ele>953.5</ele>
        <time>2016-07-10T06:51:55Z</time>
      </trkpt>
      <trkpt lat="43.22484" lon="-6.82512">
        <ele>952.4</ele>
        <time>2016-07-10T06:52:03Z</time>
      </trkpt>
      <trkpt lat="43.22488" lon="-6.82524">
        <ele>950.5</ele>
        <time>2016-07-10T06:52:13Z</time>
      </trkpt>
      <trkpt lat="43.22494" lon="-6.82534">
        <ele>948.9</ele>
        <time>2016-07-10T06:52:23Z</time>
      </trkpt>
      <trkpt lat="43.22499" lon="-6.82544">
        <ele>946.9</ele>
        <time>2016-07-10T06:52:33Z</time>
      </trkpt>
      <trkpt lat="43.22504" lon="-6.82556">
        <ele>945.2</ele>
        <time>2016-07-10T06:52:44Z</time>
      </trkpt>
      <trkpt lat="43.22511" lon="-6.82565">
        <ele>943.5</ele>
        <time>2016-07-10T06:52:54Z</time>
      </trkpt>
      <trkpt lat="43.22518" lon="-6.82575">
        <ele>941.3</ele>
        <time>2016-07-10T06:53:03Z</time>
      </trkpt>
      <trkpt lat="43.22523" lon="-6.82586">
        <ele>939.3</ele>
        <time>2016-07-10T06:53:13Z</time>
      </trkpt>
      <trkpt lat="43.22527" lon="-6.82598">
        <ele>937.2</ele>
        <time>2016-07-10T06:53:22Z</time>
      </trkpt>
      <trkpt lat="43.22533" lon="-6.82609">
        <ele>935.1</ele>
        <time>2016-07-10T06:53:31Z</time>
      </trkpt>
      <trkpt lat="43.22538" lon="-6.8262">
        <ele>932.5</ele>
        <time>2016-07-10T06:53:41Z</time>
      </trkpt>
      <trkpt lat="43.22544" lon="-6.82631">
        <ele>930.1</ele>
        <time>2016-07-10T06:53:51Z</time>
      </trkpt>
      <trkpt lat="43.22546" lon="-6.82643">
        <ele>928</ele>
        <time>2016-07-10T06:54:03Z</time>
      </trkpt>
      <trkpt lat="43.2254" lon="-6.82652">
        <ele>924.1</ele>
        <time>2016-07-10T06:54:28Z</time>
      </trkpt>
      <trkpt lat="43.22531" lon="-6.82658">
        <ele>922.3</ele>
        <time>2016-07-10T06:54:45Z</time>
      </trkpt>
      <trkpt lat="43.22523" lon="-6.82663">
        <ele>921.4</ele>
        <time>2016-07-10T06:54:54Z</time>
      </trkpt>
      <trkpt lat="43.22515" lon="-6.82671">
        <ele>919.7</ele>
        <time>2016-07-10T06:55:04Z</time>
      </trkpt>
      <trkpt lat="43.22506" lon="-6.82679">
        <ele>918</ele>
        <time>2016-07-10T06:55:14Z</time>
      </trkpt>
      <trkpt lat="43.22499" lon="-6.82688">
        <ele>916.3</ele>
        <time>2016-07-10T06:55:23Z</time>
      </trkpt>
      <trkpt lat="43.2249" lon="-6.82692">
        <ele>914.5</ele>
        <time>2016-07-10T06:55:32Z</time>
      </trkpt>
      <trkpt lat="43.22481" lon="-6.82698">
        <ele>912.4</ele>
        <time>2016-07-10T06:55:41Z</time>
      </trkpt>
      <trkpt lat="43.22473" lon="-6.82703">
        <ele>910.3</ele>
        <time>2016-07-10T06:55:50Z</time>
      </trkpt>
      <trkpt lat="43.22464" lon="-6.82708">
        <ele>908.7</ele>
        <time>2016-07-10T06:55:59Z</time>
      </trkpt>
      <trkpt lat="43.22455" lon="-6.82713">
        <ele>906.9</ele>
        <time>2016-07-10T06:56:07Z</time>
      </trkpt>
      <trkpt lat="43.22447" lon="-6.82718">
        <ele>904.9</ele>
        <time>2016-07-10T06:56:16Z</time>
      </trkpt>
      <trkpt lat="43.22438" lon="-6.82722">
        <ele>903.3</ele>
        <time>2016-07-10T06:56:24Z</time>
      </trkpt>
      <trkpt lat="43.2243" lon="-6.82729">
        <ele>901.6</ele>
        <time>2016-07-10T06:56:33Z</time>
      </trkpt>
      <trkpt lat="43.22421" lon="-6.82734">
        <ele>899.3</ele>
        <time>2016-07-10T06:56:42Z</time>
      </trkpt>
      <trkpt lat="43.22412" lon="-6.82739">
        <ele>897.4</ele>
        <time>2016-07-10T06:56:51Z</time>
      </trkpt>
      <trkpt lat="43.22404" lon="-6.82744">
        <ele>895.6</ele>
        <time>2016-07-10T06:57:00Z</time>
      </trkpt>
      <trkpt lat="43.22396" lon="-6.82752">
        <ele>894.3</ele>
        <time>2016-07-10T06:57:09Z</time>
      </trkpt>
      <trkpt lat="43.22388" lon="-6.82759">
        <ele>892.6</ele>
        <time>2016-07-10T06:57:17Z</time>
      </trkpt>
      <trkpt lat="43.22379" lon="-6.82766">
        <ele>890.9</ele>
        <time>2016-07-10T06:57:26Z</time>
      </trkpt>
      <trkpt lat="43.22371" lon="-6.82771">
        <ele>889.3</ele>
        <time>2016-07-10T06:57:36Z</time>
      </trkpt>
      <trkpt lat="43.22362" lon="-6.82777">
        <ele>886.9</ele>
        <time>2016-07-10T06:57:47Z</time>
      </trkpt>
      <trkpt lat="43.22354" lon="-6.82784">
        <ele>884.8</ele>
        <time>2016-07-10T06:57:58Z</time>
      </trkpt>
      <trkpt lat="43.22347" lon="-6.82793">
        <ele>882.4</ele>
        <time>2016-07-10T06:58:11Z</time>
      </trkpt>
      <trkpt lat="43.22352" lon="-6.82804">
        <ele>879.6</ele>
        <time>2016-07-10T06:58:23Z</time>
      </trkpt>
      <trkpt lat="43.22359" lon="-6.82813">
        <ele>877.3</ele>
        <time>2016-07-10T06:58:33Z</time>
      </trkpt>
      <trkpt lat="43.22366" lon="-6.82821">
        <ele>875.4</ele>
        <time>2016-07-10T06:58:43Z</time>
      </trkpt>
      <trkpt lat="43.22374" lon="-6.82828">
        <ele>873.5</ele>
        <time>2016-07-10T06:58:53Z</time>
      </trkpt>
      <trkpt lat="43.22382" lon="-6.82834">
        <ele>872.2</ele>
        <time>2016-07-10T06:59:03Z</time>
      </trkpt>
      <trkpt lat="43.2239" lon="-6.82843">
        <ele>871.3</ele>
        <time>2016-07-10T06:59:12Z</time>
      </trkpt>
      <trkpt lat="43.22396" lon="-6.82853">
        <ele>869.9</ele>
        <time>2016-07-10T06:59:20Z</time>
      </trkpt>
      <trkpt lat="43.22401" lon="-6.82863">
        <ele>868.8</ele>
        <time>2016-07-10T06:59:27Z</time>
      </trkpt>
      <trkpt lat="43.22407" lon="-6.82873">
        <ele>867.6</ele>
        <time>2016-07-10T06:59:35Z</time>
      </trkpt>
      <trkpt lat="43.22412" lon="-6.82884">
        <ele>865.7</ele>
        <time>2016-07-10T06:59:43Z</time>
      </trkpt>
      <trkpt lat="43.22418" lon="-6.82895">
        <ele>864.3</ele>
        <time>2016-07-10T06:59:51Z</time>
      </trkpt>
      <trkpt lat="43.22423" lon="-6.82906">
        <ele>861.8</ele>
        <time>2016-07-10T07:00:01Z</time>
      </trkpt>
      <trkpt lat="43.22418" lon="-6.82916">
        <ele>859.2</ele>
        <time>2016-07-10T07:00:13Z</time>
      </trkpt>
      <trkpt lat="43.22409" lon="-6.82921">
        <ele>857.3</ele>
        <time>2016-07-10T07:00:24Z</time>
      </trkpt>
      <trkpt lat="43.22401" lon="-6.82928">
        <ele>855.8</ele>
        <time>2016-07-10T07:00:34Z</time>
      </trkpt>
      <trkpt lat="43.22393" lon="-6.82935">
        <ele>854.3</ele>
        <time>2016-07-10T07:00:43Z</time>
      </trkpt>
      <trkpt lat="43.22384" lon="-6.82941">
        <ele>852.7</ele>
        <time>2016-07-10T07:00:51Z</time>
      </trkpt>
      <trkpt lat="43.22376" lon="-6.82948">
        <ele>851.1</ele>
        <time>2016-07-10T07:00:59Z</time>
      </trkpt>
      <trkpt lat="43.22368" lon="-6.82955">
        <ele>849.5</ele>
        <time>2016-07-10T07:01:07Z</time>
      </trkpt>
      <trkpt lat="43.2236" lon="-6.82962">
        <ele>847.9</ele>
        <time>2016-07-10T07:01:15Z</time>
      </trkpt>
      <trkpt lat="43.22352" lon="-6.8297">
        <ele>846.1</ele>
        <time>2016-07-10T07:01:23Z</time>
      </trkpt>
      <trkpt lat="43.22343" lon="-6.82976">
        <ele>845</ele>
        <time>2016-07-10T07:01:30Z</time>
      </trkpt>
      <trkpt lat="43.22336" lon="-6.82983">
        <ele>843.5</ele>
        <time>2016-07-10T07:01:38Z</time>
      </trkpt>
      <trkpt lat="43.22328" lon="-6.82989">
        <ele>841.8</ele>
        <time>2016-07-10T07:01:47Z</time>
      </trkpt>
      <trkpt lat="43.2232" lon="-6.82996">
        <ele>840.8</ele>
        <time>2016-07-10T07:01:54Z</time>
      </trkpt>
      <trkpt lat="43.22312" lon="-6.83003">
        <ele>839.5</ele>
        <time>2016-07-10T07:02:02Z</time>
      </trkpt>
      <trkpt lat="43.22305" lon="-6.8301">
        <ele>838.5</ele>
        <time>2016-07-10T07:02:10Z</time>
      </trkpt>
      <trkpt lat="43.22297" lon="-6.83018">
        <ele>837.2</ele>
        <time>2016-07-10T07:02:18Z</time>
      </trkpt>
      <trkpt lat="43.2229" lon="-6.83027">
        <ele>835.1</ele>
        <time>2016-07-10T07:02:27Z</time>
      </trkpt>
      <trkpt lat="43.22282" lon="-6.83035">
        <ele>833.1</ele>
        <time>2016-07-10T07:02:36Z</time>
      </trkpt>
      <trkpt lat="43.22275" lon="-6.83043">
        <ele>831.6</ele>
        <time>2016-07-10T07:02:45Z</time>
      </trkpt>
      <trkpt lat="43.22268" lon="-6.8305">
        <ele>829.9</ele>
        <time>2016-07-10T07:02:53Z</time>
      </trkpt>
      <trkpt lat="43.2226" lon="-6.83059">
        <ele>828.5</ele>
        <time>2016-07-10T07:03:02Z</time>
      </trkpt>
      <trkpt lat="43.22253" lon="-6.83066">
        <ele>827.2</ele>
        <time>2016-07-10T07:03:10Z</time>
      </trkpt>
      <trkpt lat="43.22246" lon="-6.83075">
        <ele>826</ele>
        <time>2016-07-10T07:03:18Z</time>
      </trkpt>
      <trkpt lat="43.22238" lon="-6.83082">
        <ele>825.2</ele>
        <time>2016-07-10T07:03:26Z</time>
      </trkpt>
      <trkpt lat="43.2223" lon="-6.83089">
        <ele>823.9</ele>
        <time>2016-07-10T07:03:35Z</time>
      </trkpt>
      <trkpt lat="43.22222" lon="-6.83095">
        <ele>823.1</ele>
        <time>2016-07-10T07:03:43Z</time>
      </trkpt>
      <trkpt lat="43.22214" lon="-6.83102">
        <ele>822</ele>
        <time>2016-07-10T07:03:51Z</time>
      </trkpt>
      <trkpt lat="43.22205" lon="-6.83107">
        <ele>821.3</ele>
        <time>2016-07-10T07:03:59Z</time>
      </trkpt>
      <trkpt lat="43.22196" lon="-6.83113">
        <ele>819.9</ele>
        <time>2016-07-10T07:04:07Z</time>
      </trkpt>
      <trkpt lat="43.22188" lon="-6.8312">
        <ele>818.7</ele>
        <time>2016-07-10T07:04:15Z</time>
      </trkpt>
      <trkpt lat="43.22179" lon="-6.83124">
        <ele>817.5</ele>
        <time>2016-07-10T07:04:23Z</time>
      </trkpt>
      <trkpt lat="43.2217" lon="-6.8313">
        <ele>816.3</ele>
        <time>2016-07-10T07:04:31Z</time>
      </trkpt>
      <trkpt lat="43.22161" lon="-6.83134">
        <ele>815.4</ele>
        <time>2016-07-10T07:04:39Z</time>
      </trkpt>
      <trkpt lat="43.22152" lon="-6.83138">
        <ele>814.3</ele>
        <time>2016-07-10T07:04:47Z</time>
      </trkpt>
      <trkpt lat="43.22142" lon="-6.83141">
        <ele>813</ele>
        <time>2016-07-10T07:04:56Z</time>
      </trkpt>
      <trkpt lat="43.22132" lon="-6.83141">
        <ele>811.7</ele>
        <time>2016-07-10T07:05:05Z</time>
      </trkpt>
      <trkpt lat="43.22124" lon="-6.83133">
        <ele>810.6</ele>
        <time>2016-07-10T07:05:14Z</time>
      </trkpt>
      <trkpt lat="43.22121" lon="-6.83122">
        <ele>809.1</ele>
        <time>2016-07-10T07:05:24Z</time>
      </trkpt>
      <trkpt lat="43.22118" lon="-6.83109">
        <ele>807.7</ele>
        <time>2016-07-10T07:05:33Z</time>
      </trkpt>
      <trkpt lat="43.22115" lon="-6.83097">
        <ele>806.1</ele>
        <time>2016-07-10T07:05:43Z</time>
      </trkpt>
      <trkpt lat="43.22107" lon="-6.8309">
        <ele>804.6</ele>
        <time>2016-07-10T07:05:52Z</time>
      </trkpt>
      <trkpt lat="43.22098" lon="-6.83086">
        <ele>802.7</ele>
        <time>2016-07-10T07:06:01Z</time>
      </trkpt>
      <trkpt lat="43.22088" lon="-6.83084">
        <ele>801.3</ele>
        <time>2016-07-10T07:06:09Z</time>
      </trkpt>
      <trkpt lat="43.22079" lon="-6.83081">
        <ele>800.1</ele>
        <time>2016-07-10T07:06:17Z</time>
      </trkpt>
      <trkpt lat="43.2207" lon="-6.83085">
        <ele>796.4</ele>
        <time>2016-07-10T07:06:58Z</time>
      </trkpt>
      <trkpt lat="43.22061" lon="-6.83085">
        <ele>795.8</ele>
        <time>2016-07-10T07:07:18Z</time>
      </trkpt>
      <trkpt lat="43.22055" lon="-6.83095">
        <ele>794</ele>
        <time>2016-07-10T07:07:40Z</time>
      </trkpt>
      <trkpt lat="43.22058" lon="-6.83107">
        <ele>792.6</ele>
        <time>2016-07-10T07:07:51Z</time>
      </trkpt>
      <trkpt lat="43.22061" lon="-6.8312">
        <ele>791.1</ele>
        <time>2016-07-10T07:08:01Z</time>
      </trkpt>
      <trkpt lat="43.2206" lon="-6.83134">
        <ele>789.2</ele>
        <time>2016-07-10T07:08:11Z</time>
      </trkpt>
      <trkpt lat="43.22058" lon="-6.83146">
        <ele>787.6</ele>
        <time>2016-07-10T07:08:19Z</time>
      </trkpt>
      <trkpt lat="43.22056" lon="-6.83158">
        <ele>785.9</ele>
        <time>2016-07-10T07:08:27Z</time>
      </trkpt>
      <trkpt lat="43.22051" lon="-6.8317">
        <ele>783.7</ele>
        <time>2016-07-10T07:08:37Z</time>
      </trkpt>
      <trkpt lat="43.22048" lon="-6.83182">
        <ele>781.7</ele>
        <time>2016-07-10T07:08:47Z</time>
      </trkpt>
      <trkpt lat="43.22047" lon="-6.83195">
        <ele>779.7</ele>
        <time>2016-07-10T07:08:57Z</time>
      </trkpt>
      <trkpt lat="43.22045" lon="-6.83208">
        <ele>778.5</ele>
        <time>2016-07-10T07:09:05Z</time>
      </trkpt>
      <trkpt lat="43.22044" lon="-6.83221">
        <ele>777.3</ele>
        <time>2016-07-10T07:09:13Z</time>
      </trkpt>
      <trkpt lat="43.22045" lon="-6.83235">
        <ele>775.8</ele>
        <time>2016-07-10T07:09:22Z</time>
      </trkpt>
      <trkpt lat="43.22045" lon="-6.83249">
        <ele>774.5</ele>
        <time>2016-07-10T07:09:31Z</time>
      </trkpt>
      <trkpt lat="43.22046" lon="-6.83262">
        <ele>773.3</ele>
        <time>2016-07-10T07:09:39Z</time>
      </trkpt>
      <trkpt lat="43.22048" lon="-6.83275">
        <ele>771.8</ele>
        <time>2016-07-10T07:09:47Z</time>
      </trkpt>
      <trkpt lat="43.2205" lon="-6.83287">
        <ele>769.3</ele>
        <time>2016-07-10T07:10:01Z</time>
      </trkpt>
      <trkpt lat="43.22051" lon="-6.83301">
        <ele>765.9</ele>
        <time>2016-07-10T07:11:06Z</time>
      </trkpt>
      <trkpt lat="43.22055" lon="-6.83313">
        <ele>765.1</ele>
        <time>2016-07-10T07:11:14Z</time>
      </trkpt>
      <trkpt lat="43.22059" lon="-6.83324">
        <ele>763.8</ele>
        <time>2016-07-10T07:11:22Z</time>
      </trkpt>
      <trkpt lat="43.22063" lon="-6.83336">
        <ele>762.1</ele>
        <time>2016-07-10T07:11:31Z</time>
      </trkpt>
      <trkpt lat="43.22066" lon="-6.83349">
        <ele>760.8</ele>
        <time>2016-07-10T07:11:39Z</time>
      </trkpt>
      <trkpt lat="43.22069" lon="-6.83361">
        <ele>759.4</ele>
        <time>2016-07-10T07:11:47Z</time>
      </trkpt>
      <trkpt lat="43.22074" lon="-6.83373">
        <ele>757.8</ele>
        <time>2016-07-10T07:11:57Z</time>
      </trkpt>
      <trkpt lat="43.22079" lon="-6.83385">
        <ele>755.7</ele>
        <time>2016-07-10T07:12:05Z</time>
      </trkpt>
      <trkpt lat="43.22085" lon="-6.83395">
        <ele>753.5</ele>
        <time>2016-07-10T07:12:14Z</time>
      </trkpt>
      <trkpt lat="43.22092" lon="-6.83405">
        <ele>750.5</ele>
        <time>2016-07-10T07:12:25Z</time>
      </trkpt>
      <trkpt lat="43.22098" lon="-6.83414">
        <ele>749.1</ele>
        <time>2016-07-10T07:12:34Z</time>
      </trkpt>
      <trkpt lat="43.22105" lon="-6.83422">
        <ele>747.8</ele>
        <time>2016-07-10T07:12:42Z</time>
      </trkpt>
      <trkpt lat="43.22111" lon="-6.83432">
        <ele>746.5</ele>
        <time>2016-07-10T07:12:50Z</time>
      </trkpt>
      <trkpt lat="43.22118" lon="-6.83441">
        <ele>744.8</ele>
        <time>2016-07-10T07:12:58Z</time>
      </trkpt>
      <trkpt lat="43.22125" lon="-6.8345">
        <ele>743</ele>
        <time>2016-07-10T07:13:06Z</time>
      </trkpt>
      <trkpt lat="43.22132" lon="-6.83459">
        <ele>741.7</ele>
        <time>2016-07-10T07:13:14Z</time>
      </trkpt>
      <trkpt lat="43.22139" lon="-6.83468">
        <ele>740</ele>
        <time>2016-07-10T07:13:22Z</time>
      </trkpt>
      <trkpt lat="43.22146" lon="-6.83476">
        <ele>738.1</ele>
        <time>2016-07-10T07:13:31Z</time>
      </trkpt>
      <trkpt lat="43.22154" lon="-6.83484">
        <ele>736</ele>
        <time>2016-07-10T07:13:41Z</time>
      </trkpt>
      <trkpt lat="43.22162" lon="-6.83492">
        <ele>734.1</ele>
        <time>2016-07-10T07:13:50Z</time>
      </trkpt>
      <trkpt lat="43.2217" lon="-6.83499">
        <ele>731.9</ele>
        <time>2016-07-10T07:14:00Z</time>
      </trkpt>
      <trkpt lat="43.22178" lon="-6.83505">
        <ele>729.8</ele>
        <time>2016-07-10T07:14:10Z</time>
      </trkpt>
      <trkpt lat="43.22186" lon="-6.83514">
        <ele>728.1</ele>
        <time>2016-07-10T07:14:19Z</time>
      </trkpt>
      <trkpt lat="43.22194" lon="-6.83521">
        <ele>726.9</ele>
        <time>2016-07-10T07:14:27Z</time>
      </trkpt>
      <trkpt lat="43.22202" lon="-6.83526">
        <ele>726</ele>
        <time>2016-07-10T07:14:35Z</time>
      </trkpt>
      <trkpt lat="43.2221" lon="-6.83531">
        <ele>724.3</ele>
        <time>2016-07-10T07:14:43Z</time>
      </trkpt>
      <trkpt lat="43.22218" lon="-6.83538">
        <ele>723.1</ele>
        <time>2016-07-10T07:14:51Z</time>
      </trkpt>
      <trkpt lat="43.22223" lon="-6.8355">
        <ele>721.3</ele>
        <time>2016-07-10T07:15:00Z</time>
      </trkpt>
      <trkpt lat="43.22218" lon="-6.8356">
        <ele>719.7</ele>
        <time>2016-07-10T07:15:11Z</time>
      </trkpt>
      <trkpt lat="43.22211" lon="-6.83569">
        <ele>717.1</ele>
        <time>2016-07-10T07:15:24Z</time>
      </trkpt>
      <trkpt lat="43.22204" lon="-6.83577">
        <ele>715.7</ele>
        <time>2016-07-10T07:15:34Z</time>
      </trkpt>
      <trkpt lat="43.22197" lon="-6.83586">
        <ele>714.4</ele>
        <time>2016-07-10T07:15:44Z</time>
      </trkpt>
      <trkpt lat="43.2219" lon="-6.83594">
        <ele>712.8</ele>
        <time>2016-07-10T07:15:54Z</time>
      </trkpt>
      <trkpt lat="43.22183" lon="-6.83602">
        <ele>711.4</ele>
        <time>2016-07-10T07:16:03Z</time>
      </trkpt>
      <trkpt lat="43.22175" lon="-6.83608">
        <ele>708.9</ele>
        <time>2016-07-10T07:16:14Z</time>
      </trkpt>
      <trkpt lat="43.22165" lon="-6.83614">
        <ele>706.7</ele>
        <time>2016-07-10T07:16:24Z</time>
      </trkpt>
      <trkpt lat="43.22157" lon="-6.83619">
        <ele>705.3</ele>
        <time>2016-07-10T07:16:34Z</time>
      </trkpt>
      <trkpt lat="43.22147" lon="-6.83623">
        <ele>703.4</ele>
        <time>2016-07-10T07:16:45Z</time>
      </trkpt>
      <trkpt lat="43.22139" lon="-6.8363">
        <ele>701.6</ele>
        <time>2016-07-10T07:16:53Z</time>
      </trkpt>
      <trkpt lat="43.22131" lon="-6.83637">
        <ele>699.4</ele>
        <time>2016-07-10T07:17:02Z</time>
      </trkpt>
      <trkpt lat="43.22122" lon="-6.83638">
        <ele>697.8</ele>
        <time>2016-07-10T07:17:10Z</time>
      </trkpt>
      <trkpt lat="43.22113" lon="-6.83636">
        <ele>695.8</ele>
        <time>2016-07-10T07:17:19Z</time>
      </trkpt>
      <trkpt lat="43.22105" lon="-6.83633">
        <ele>693.5</ele>
        <time>2016-07-10T07:17:28Z</time>
      </trkpt>
      <trkpt lat="43.22095" lon="-6.83629">
        <ele>691.7</ele>
        <time>2016-07-10T07:17:37Z</time>
      </trkpt>
      <trkpt lat="43.22086" lon="-6.83632">
        <ele>690</ele>
        <time>2016-07-10T07:17:46Z</time>
      </trkpt>
      <trkpt lat="43.22085" lon="-6.83645">
        <ele>687.9</ele>
        <time>2016-07-10T07:17:58Z</time>
      </trkpt>
      <trkpt lat="43.2209" lon="-6.83657">
        <ele>685.8</ele>
        <time>2016-07-10T07:18:10Z</time>
      </trkpt>
      <trkpt lat="43.22095" lon="-6.83666">
        <ele>684.1</ele>
        <time>2016-07-10T07:18:22Z</time>
      </trkpt>
      <trkpt lat="43.22103" lon="-6.83676">
        <ele>682.7</ele>
        <time>2016-07-10T07:18:31Z</time>
      </trkpt>
      <trkpt lat="43.2211" lon="-6.83685">
        <ele>681.7</ele>
        <time>2016-07-10T07:18:40Z</time>
      </trkpt>
      <trkpt lat="43.22117" lon="-6.83695">
        <ele>680.3</ele>
        <time>2016-07-10T07:18:47Z</time>
      </trkpt>
      <trkpt lat="43.22124" lon="-6.83703">
        <ele>678.7</ele>
        <time>2016-07-10T07:18:56Z</time>
      </trkpt>
      <trkpt lat="43.22132" lon="-6.83709">
        <ele>677.1</ele>
        <time>2016-07-10T07:19:05Z</time>
      </trkpt>
      <trkpt lat="43.22142" lon="-6.83714">
        <ele>675.6</ele>
        <time>2016-07-10T07:19:14Z</time>
      </trkpt>
      <trkpt lat="43.2215" lon="-6.8372">
        <ele>674.4</ele>
        <time>2016-07-10T07:19:23Z</time>
      </trkpt>
      <trkpt lat="43.2216" lon="-6.83725">
        <ele>673.6</ele>
        <time>2016-07-10T07:19:31Z</time>
      </trkpt>
      <trkpt lat="43.22169" lon="-6.8373">
        <ele>672.2</ele>
        <time>2016-07-10T07:19:39Z</time>
      </trkpt>
      <trkpt lat="43.22177" lon="-6.83735">
        <ele>670.9</ele>
        <time>2016-07-10T07:19:48Z</time>
      </trkpt>
      <trkpt lat="43.22187" lon="-6.8374">
        <ele>668.5</ele>
        <time>2016-07-10T07:19:58Z</time>
      </trkpt>
      <trkpt lat="43.22195" lon="-6.83745">
        <ele>666.3</ele>
        <time>2016-07-10T07:20:08Z</time>
      </trkpt>
      <trkpt lat="43.22204" lon="-6.83748">
        <ele>664.8</ele>
        <time>2016-07-10T07:20:17Z</time>
      </trkpt>
      <trkpt lat="43.22214" lon="-6.83749">
        <ele>663</ele>
        <time>2016-07-10T07:20:26Z</time>
      </trkpt>
      <trkpt lat="43.22223" lon="-6.8375">
        <ele>661.6</ele>
        <time>2016-07-10T07:20:34Z</time>
      </trkpt>
      <trkpt lat="43.22232" lon="-6.83751">
        <ele>660.1</ele>
        <time>2016-07-10T07:20:44Z</time>
      </trkpt>
      <trkpt lat="43.22242" lon="-6.83753">
        <ele>658.1</ele>
        <time>2016-07-10T07:20:53Z</time>
      </trkpt>
      <trkpt lat="43.22251" lon="-6.83751">
        <ele>656.4</ele>
        <time>2016-07-10T07:21:01Z</time>
      </trkpt>
      <trkpt lat="43.22261" lon="-6.83749">
        <ele>654.1</ele>
        <time>2016-07-10T07:21:10Z</time>
      </trkpt>
      <trkpt lat="43.2227" lon="-6.83743">
        <ele>652.5</ele>
        <time>2016-07-10T07:21:19Z</time>
      </trkpt>
      <trkpt lat="43.22279" lon="-6.83739">
        <ele>651.4</ele>
        <time>2016-07-10T07:21:26Z</time>
      </trkpt>
      <trkpt lat="43.22287" lon="-6.83732">
        <ele>649.8</ele>
        <time>2016-07-10T07:21:35Z</time>
      </trkpt>
      <trkpt lat="43.22295" lon="-6.83725">
        <ele>648</ele>
        <time>2016-07-10T07:21:43Z</time>
      </trkpt>
      <trkpt lat="43.22303" lon="-6.83718">
        <ele>646.4</ele>
        <time>2016-07-10T07:21:52Z</time>
      </trkpt>
      <trkpt lat="43.22311" lon="-6.83709">
        <ele>645.2</ele>
        <time>2016-07-10T07:22:00Z</time>
      </trkpt>
      <trkpt lat="43.22318" lon="-6.837">
        <ele>644.1</ele>
        <time>2016-07-10T07:22:08Z</time>
      </trkpt>
      <trkpt lat="43.22325" lon="-6.83693">
        <ele>643.2</ele>
        <time>2016-07-10T07:22:16Z</time>
      </trkpt>
      <trkpt lat="43.22326" lon="-6.83706">
        <ele>639.3</ele>
        <time>2016-07-10T07:22:37Z</time>
      </trkpt>
      <trkpt lat="43.22322" lon="-6.83719">
        <ele>637.1</ele>
        <time>2016-07-10T07:22:47Z</time>
      </trkpt>
      <trkpt lat="43.2232" lon="-6.83731">
        <ele>635.7</ele>
        <time>2016-07-10T07:22:56Z</time>
      </trkpt>
      <trkpt lat="43.22316" lon="-6.83744">
        <ele>634</ele>
        <time>2016-07-10T07:23:06Z</time>
      </trkpt>
      <trkpt lat="43.22311" lon="-6.83755">
        <ele>631.8</ele>
        <time>2016-07-10T07:23:15Z</time>
      </trkpt>
      <trkpt lat="43.22305" lon="-6.83765">
        <ele>629.4</ele>
        <time>2016-07-10T07:23:26Z</time>
      </trkpt>
      <trkpt lat="43.22299" lon="-6.83775">
        <ele>627.2</ele>
        <time>2016-07-10T07:23:35Z</time>
      </trkpt>
      <trkpt lat="43.22293" lon="-6.83787">
        <ele>624.9</ele>
        <time>2016-07-10T07:23:45Z</time>
      </trkpt>
      <trkpt lat="43.22289" lon="-6.83799">
        <ele>622.9</ele>
        <time>2016-07-10T07:23:54Z</time>
      </trkpt>
      <trkpt lat="43.22284" lon="-6.8381">
        <ele>620.7</ele>
        <time>2016-07-10T07:24:03Z</time>
      </trkpt>
      <trkpt lat="43.22279" lon="-6.83821">
        <ele>618.8</ele>
        <time>2016-07-10T07:24:12Z</time>
      </trkpt>
      <trkpt lat="43.22273" lon="-6.83831">
        <ele>616.8</ele>
        <time>2016-07-10T07:24:22Z</time>
      </trkpt>
      <trkpt lat="43.22266" lon="-6.8384">
        <ele>614.7</ele>
        <time>2016-07-10T07:24:31Z</time>
      </trkpt>
      <trkpt lat="43.2226" lon="-6.8385">
        <ele>612.4</ele>
        <time>2016-07-10T07:24:41Z</time>
      </trkpt>
      <trkpt lat="43.22256" lon="-6.83862">
        <ele>610.7</ele>
        <time>2016-07-10T07:24:51Z</time>
      </trkpt>
      <trkpt lat="43.22251" lon="-6.83873">
        <ele>609.7</ele>
        <time>2016-07-10T07:25:00Z</time>
      </trkpt>
      <trkpt lat="43.22247" lon="-6.83885">
        <ele>608.3</ele>
        <time>2016-07-10T07:25:07Z</time>
      </trkpt>
      <trkpt lat="43.22244" lon="-6.83898">
        <ele>606.6</ele>
        <time>2016-07-10T07:25:16Z</time>
      </trkpt>
      <trkpt lat="43.22245" lon="-6.83911">
        <ele>602.6</ele>
        <time>2016-07-10T07:25:40Z</time>
      </trkpt>
      <trkpt lat="43.2224" lon="-6.83922">
        <ele>601.7</ele>
        <time>2016-07-10T07:25:50Z</time>
      </trkpt>
      <trkpt lat="43.22235" lon="-6.83933">
        <ele>600.2</ele>
        <time>2016-07-10T07:26:00Z</time>
      </trkpt>
      <trkpt lat="43.22229" lon="-6.83944">
        <ele>598</ele>
        <time>2016-07-10T07:26:09Z</time>
      </trkpt>
      <trkpt lat="43.22222" lon="-6.83953">
        <ele>595.4</ele>
        <time>2016-07-10T07:26:19Z</time>
      </trkpt>
      <trkpt lat="43.22214" lon="-6.8396">
        <ele>593</ele>
        <time>2016-07-10T07:26:29Z</time>
      </trkpt>
      <trkpt lat="43.22206" lon="-6.83967">
        <ele>590.4</ele>
        <time>2016-07-10T07:26:39Z</time>
      </trkpt>
      <trkpt lat="43.22196" lon="-6.83969">
        <ele>588.2</ele>
        <time>2016-07-10T07:26:50Z</time>
      </trkpt>
      <trkpt lat="43.22186" lon="-6.83972">
        <ele>586.3</ele>
        <time>2016-07-10T07:26:59Z</time>
      </trkpt>
      <trkpt lat="43.22177" lon="-6.83975">
        <ele>584.2</ele>
        <time>2016-07-10T07:27:08Z</time>
      </trkpt>
      <trkpt lat="43.22168" lon="-6.83973">
        <ele>582</ele>
        <time>2016-07-10T07:27:17Z</time>
      </trkpt>
      <trkpt lat="43.22158" lon="-6.83975">
        <ele>580.1</ele>
        <time>2016-07-10T07:27:25Z</time>
      </trkpt>
      <trkpt lat="43.22149" lon="-6.8398">
        <ele>578.1</ele>
        <time>2016-07-10T07:27:33Z</time>
      </trkpt>
      <trkpt lat="43.2214" lon="-6.8398">
        <ele>575.9</ele>
        <time>2016-07-10T07:27:41Z</time>
      </trkpt>
      <trkpt lat="43.2213" lon="-6.83979">
        <ele>573.9</ele>
        <time>2016-07-10T07:27:50Z</time>
      </trkpt>
      <trkpt lat="43.22121" lon="-6.83982">
        <ele>571.7</ele>
        <time>2016-07-10T07:27:58Z</time>
      </trkpt>
      <trkpt lat="43.22118" lon="-6.83994">
        <ele>568.9</ele>
        <time>2016-07-10T07:28:09Z</time>
      </trkpt>
      <trkpt lat="43.22122" lon="-6.84005">
        <ele>566.4</ele>
        <time>2016-07-10T07:28:20Z</time>
      </trkpt>
      <trkpt lat="43.22128" lon="-6.84016">
        <ele>563.9</ele>
        <time>2016-07-10T07:28:31Z</time>
      </trkpt>
      <trkpt lat="43.22133" lon="-6.84025">
        <ele>561.6</ele>
        <time>2016-07-10T07:28:40Z</time>
      </trkpt>
      <trkpt lat="43.2214" lon="-6.84034">
        <ele>559.6</ele>
        <time>2016-07-10T07:28:49Z</time>
      </trkpt>
      <trkpt lat="43.22148" lon="-6.84042">
        <ele>557.9</ele>
        <time>2016-07-10T07:28:56Z</time>
      </trkpt>
      <trkpt lat="43.22155" lon="-6.84051">
        <ele>556.1</ele>
        <time>2016-07-10T07:29:04Z</time>
      </trkpt>
      <trkpt lat="43.22161" lon="-6.84059">
        <ele>554.6</ele>
        <time>2016-07-10T07:29:11Z</time>
      </trkpt>
      <trkpt lat="43.22169" lon="-6.84069">
        <ele>553.4</ele>
        <time>2016-07-10T07:29:19Z</time>
      </trkpt>
      <trkpt lat="43.22177" lon="-6.84077">
        <ele>550.6</ele>
        <time>2016-07-10T07:29:44Z</time>
      </trkpt>
      <trkpt lat="43.22184" lon="-6.84085">
        <ele>549.5</ele>
        <time>2016-07-10T07:29:52Z</time>
      </trkpt>
      <trkpt lat="43.22184" lon="-6.84073">
        <ele>546.9</ele>
        <time>2016-07-10T07:31:15Z</time>
      </trkpt>
      <trkpt lat="43.22174" lon="-6.84073">
        <ele>546.3</ele>
        <time>2016-07-10T07:32:25Z</time>
      </trkpt>
      <trkpt lat="43.22165" lon="-6.84075">
        <ele>545.4</ele>
        <time>2016-07-10T07:32:33Z</time>
      </trkpt>
      <trkpt lat="43.22155" lon="-6.84075">
        <ele>544.2</ele>
        <time>2016-07-10T07:32:40Z</time>
      </trkpt>
      <trkpt lat="43.22145" lon="-6.84078">
        <ele>542.1</ele>
        <time>2016-07-10T07:32:49Z</time>
      </trkpt>
      <trkpt lat="43.22136" lon="-6.8408">
        <ele>540.4</ele>
        <time>2016-07-10T07:32:57Z</time>
      </trkpt>
      <trkpt lat="43.22126" lon="-6.84079">
        <ele>538.9</ele>
        <time>2016-07-10T07:33:04Z</time>
      </trkpt>
      <trkpt lat="43.22117" lon="-6.8408">
        <ele>537.3</ele>
        <time>2016-07-10T07:33:11Z</time>
      </trkpt>
      <trkpt lat="43.22107" lon="-6.84079">
        <ele>535.3</ele>
        <time>2016-07-10T07:33:20Z</time>
      </trkpt>
      <trkpt lat="43.22097" lon="-6.8408">
        <ele>532.8</ele>
        <time>2016-07-10T07:33:30Z</time>
      </trkpt>
      <trkpt lat="43.22096" lon="-6.84093">
        <ele>529.5</ele>
        <time>2016-07-10T07:33:43Z</time>
      </trkpt>
      <trkpt lat="43.22099" lon="-6.84105">
        <ele>525.9</ele>
        <time>2016-07-10T07:33:55Z</time>
      </trkpt>
      <trkpt lat="43.22103" lon="-6.84117">
        <ele>524.2</ele>
        <time>2016-07-10T07:34:04Z</time>
      </trkpt>
      <trkpt lat="43.22109" lon="-6.84128">
        <ele>521.6</ele>
        <time>2016-07-10T07:34:13Z</time>
      </trkpt>
      <trkpt lat="43.22116" lon="-6.84137">
        <ele>519.3</ele>
        <time>2016-07-10T07:34:22Z</time>
      </trkpt>
      <trkpt lat="43.22122" lon="-6.84148">
        <ele>517.1</ele>
        <time>2016-07-10T07:34:31Z</time>
      </trkpt>
      <trkpt lat="43.22127" lon="-6.84159">
        <ele>515.1</ele>
        <time>2016-07-10T07:34:39Z</time>
      </trkpt>
      <trkpt lat="43.22133" lon="-6.84169">
        <ele>512.4</ele>
        <time>2016-07-10T07:34:49Z</time>
      </trkpt>
      <trkpt lat="43.22139" lon="-6.84179">
        <ele>509.8</ele>
        <time>2016-07-10T07:35:00Z</time>
      </trkpt>
      <trkpt lat="43.22147" lon="-6.84185">
        <ele>507.7</ele>
        <time>2016-07-10T07:35:09Z</time>
      </trkpt>
      <trkpt lat="43.22155" lon="-6.84192">
        <ele>505.6</ele>
        <time>2016-07-10T07:35:17Z</time>
      </trkpt>
      <trkpt lat="43.22163" lon="-6.842">
        <ele>503.8</ele>
        <time>2016-07-10T07:35:25Z</time>
      </trkpt>
      <trkpt lat="43.2217" lon="-6.84208">
        <ele>502.2</ele>
        <time>2016-07-10T07:35:33Z</time>
      </trkpt>
      <trkpt lat="43.22164" lon="-6.84217">
        <ele>496.3</ele>
        <time>2016-07-10T07:36:01Z</time>
      </trkpt>
      <trkpt lat="43.22158" lon="-6.84226">
        <ele>492.1</ele>
        <time>2016-07-10T07:36:20Z</time>
      </trkpt>
      <trkpt lat="43.22164" lon="-6.84235">
        <ele>489.8</ele>
        <time>2016-07-10T07:36:32Z</time>
      </trkpt>
      <trkpt lat="43.22173" lon="-6.84242">
        <ele>488</ele>
        <time>2016-07-10T07:36:41Z</time>
      </trkpt>
      <trkpt lat="43.2218" lon="-6.8425">
        <ele>486.3</ele>
        <time>2016-07-10T07:36:50Z</time>
      </trkpt>
      <trkpt lat="43.22189" lon="-6.84257">
        <ele>484</ele>
        <time>2016-07-10T07:37:00Z</time>
      </trkpt>
      <trkpt lat="43.22197" lon="-6.84262">
        <ele>482.3</ele>
        <time>2016-07-10T07:37:09Z</time>
      </trkpt>
      <trkpt lat="43.22206" lon="-6.84265">
        <ele>480.2</ele>
        <time>2016-07-10T07:37:18Z</time>
      </trkpt>
      <trkpt lat="43.22216" lon="-6.84266">
        <ele>478.6</ele>
        <time>2016-07-10T07:37:28Z</time>
      </trkpt>
      <trkpt lat="43.22225" lon="-6.84268">
        <ele>477.3</ele>
        <time>2016-07-10T07:37:35Z</time>
      </trkpt>
      <trkpt lat="43.22235" lon="-6.84268">
        <ele>475.6</ele>
        <time>2016-07-10T07:37:43Z</time>
      </trkpt>
      <trkpt lat="43.22244" lon="-6.8427">
        <ele>473.4</ele>
        <time>2016-07-10T07:37:53Z</time>
      </trkpt>
      <trkpt lat="43.22253" lon="-6.84271">
        <ele>471.5</ele>
        <time>2016-07-10T07:38:02Z</time>
      </trkpt>
      <trkpt lat="43.22262" lon="-6.84268">
        <ele>469.6</ele>
        <time>2016-07-10T07:38:12Z</time>
      </trkpt>
      <trkpt lat="43.22271" lon="-6.84265">
        <ele>467.3</ele>
        <time>2016-07-10T07:38:21Z</time>
      </trkpt>
      <trkpt lat="43.22281" lon="-6.84263">
        <ele>465.8</ele>
        <time>2016-07-10T07:38:28Z</time>
      </trkpt>
      <trkpt lat="43.22288" lon="-6.84255">
        <ele>464.3</ele>
        <time>2016-07-10T07:38:35Z</time>
      </trkpt>
      <trkpt lat="43.22295" lon="-6.84246">
        <ele>462.8</ele>
        <time>2016-07-10T07:38:44Z</time>
      </trkpt>
      <trkpt lat="43.22302" lon="-6.84235">
        <ele>461.9</ele>
        <time>2016-07-10T07:38:53Z</time>
      </trkpt>
      <trkpt lat="43.22309" lon="-6.84226">
        <ele>462.1</ele>
        <time>2016-07-10T07:39:01Z</time>
      </trkpt>
      <trkpt lat="43.22315" lon="-6.84217">
        <ele>462.8</ele>
        <time>2016-07-10T07:39:08Z</time>
      </trkpt>
      <trkpt lat="43.22322" lon="-6.84206">
        <ele>463.3</ele>
        <time>2016-07-10T07:39:16Z</time>
      </trkpt>
      <trkpt lat="43.22329" lon="-6.84198">
        <ele>463.8</ele>
        <time>2016-07-10T07:39:24Z</time>
      </trkpt>
      <trkpt lat="43.22335" lon="-6.84187">
        <ele>465.1</ele>
        <time>2016-07-10T07:39:33Z</time>
      </trkpt>
      <trkpt lat="43.2234" lon="-6.84176">
        <ele>465.8</ele>
        <time>2016-07-10T07:39:42Z</time>
      </trkpt>
      <trkpt lat="43.22347" lon="-6.84166">
        <ele>466.2</ele>
        <time>2016-07-10T07:39:51Z</time>
      </trkpt>
      <trkpt lat="43.22352" lon="-6.84154">
        <ele>466.5</ele>
        <time>2016-07-10T07:40:00Z</time>
      </trkpt>
      <trkpt lat="43.22357" lon="-6.84143">
        <ele>467.3</ele>
        <time>2016-07-10T07:40:09Z</time>
      </trkpt>
      <trkpt lat="43.22365" lon="-6.84138">
        <ele>468</ele>
        <time>2016-07-10T07:40:20Z</time>
      </trkpt>
      <trkpt lat="43.22371" lon="-6.84147">
        <ele>468.3</ele>
        <time>2016-07-10T07:40:31Z</time>
      </trkpt>
      <trkpt lat="43.22375" lon="-6.84158">
        <ele>468.8</ele>
        <time>2016-07-10T07:40:46Z</time>
      </trkpt>
      <trkpt lat="43.22381" lon="-6.84169">
        <ele>469.6</ele>
        <time>2016-07-10T07:40:58Z</time>
      </trkpt>
      <trkpt lat="43.22387" lon="-6.84179">
        <ele>470.4</ele>
        <time>2016-07-10T07:41:11Z</time>
      </trkpt>
      <trkpt lat="43.22395" lon="-6.84187">
        <ele>471.5</ele>
        <time>2016-07-10T07:41:22Z</time>
      </trkpt>
      <trkpt lat="43.22402" lon="-6.84196">
        <ele>472.3</ele>
        <time>2016-07-10T07:41:33Z</time>
      </trkpt>
      <trkpt lat="43.22408" lon="-6.84206">
        <ele>473.7</ele>
        <time>2016-07-10T07:41:44Z</time>
      </trkpt>
      <trkpt lat="43.22415" lon="-6.84214">
        <ele>474.7</ele>
        <time>2016-07-10T07:41:54Z</time>
      </trkpt>
      <trkpt lat="43.22422" lon="-6.84222">
        <ele>475.7</ele>
        <time>2016-07-10T07:42:04Z</time>
      </trkpt>
      <trkpt lat="43.22429" lon="-6.84231">
        <ele>476.8</ele>
        <time>2016-07-10T07:42:15Z</time>
      </trkpt>
      <trkpt lat="43.22436" lon="-6.84239">
        <ele>477.5</ele>
        <time>2016-07-10T07:42:24Z</time>
      </trkpt>
      <trkpt lat="43.22444" lon="-6.84247">
        <ele>478.2</ele>
        <time>2016-07-10T07:42:35Z</time>
      </trkpt>
      <trkpt lat="43.22452" lon="-6.84253">
        <ele>479</ele>
        <time>2016-07-10T07:42:45Z</time>
      </trkpt>
      <trkpt lat="43.22459" lon="-6.84262">
        <ele>480.4</ele>
        <time>2016-07-10T07:42:54Z</time>
      </trkpt>
      <trkpt lat="43.22465" lon="-6.84271">
        <ele>481.6</ele>
        <time>2016-07-10T07:43:03Z</time>
      </trkpt>
      <trkpt lat="43.22472" lon="-6.84278">
        <ele>482.5</ele>
        <time>2016-07-10T07:43:13Z</time>
      </trkpt>
      <trkpt lat="43.22482" lon="-6.84281">
        <ele>483.9</ele>
        <time>2016-07-10T07:43:22Z</time>
      </trkpt>
      <trkpt lat="43.22492" lon="-6.84282">
        <ele>484.5</ele>
        <time>2016-07-10T07:43:30Z</time>
      </trkpt>
      <trkpt lat="43.22501" lon="-6.84282">
        <ele>485</ele>
        <time>2016-07-10T07:43:41Z</time>
      </trkpt>
      <trkpt lat="43.22506" lon="-6.84273">
        <ele>484.4</ele>
        <time>2016-07-10T07:45:02Z</time>
      </trkpt>
      <trkpt lat="43.22515" lon="-6.84278">
        <ele>482.9</ele>
        <time>2016-07-10T07:45:19Z</time>
      </trkpt>
      <trkpt lat="43.22524" lon="-6.84281">
        <ele>482.1</ele>
        <time>2016-07-10T07:45:29Z</time>
      </trkpt>
      <trkpt lat="43.22533" lon="-6.84285">
        <ele>481.2</ele>
        <time>2016-07-10T07:45:39Z</time>
      </trkpt>
      <trkpt lat="43.22542" lon="-6.84285">
        <ele>480.1</ele>
        <time>2016-07-10T07:45:48Z</time>
      </trkpt>
      <trkpt lat="43.22552" lon="-6.84285">
        <ele>478.9</ele>
        <time>2016-07-10T07:45:57Z</time>
      </trkpt>
      <trkpt lat="43.22561" lon="-6.84284">
        <ele>477.5</ele>
        <time>2016-07-10T07:46:04Z</time>
      </trkpt>
      <trkpt lat="43.2257" lon="-6.8428">
        <ele>476.7</ele>
        <time>2016-07-10T07:46:11Z</time>
      </trkpt>
      <trkpt lat="43.22578" lon="-6.84275">
        <ele>476.2</ele>
        <time>2016-07-10T07:46:18Z</time>
      </trkpt>
      <trkpt lat="43.22587" lon="-6.84268">
        <ele>475.6</ele>
        <time>2016-07-10T07:46:26Z</time>
      </trkpt>
      <trkpt lat="43.22596" lon="-6.84261">
        <ele>475.2</ele>
        <time>2016-07-10T07:46:34Z</time>
      </trkpt>
      <trkpt lat="43.22604" lon="-6.84254">
        <ele>475</ele>
        <time>2016-07-10T07:46:42Z</time>
      </trkpt>
      <trkpt lat="43.22612" lon="-6.84248">
        <ele>475.3</ele>
        <time>2016-07-10T07:46:52Z</time>
      </trkpt>
      <trkpt lat="43.2262" lon="-6.84239">
        <ele>475.8</ele>
        <time>2016-07-10T07:47:00Z</time>
      </trkpt>
      <trkpt lat="43.22626" lon="-6.84228">
        <ele>476.3</ele>
        <time>2016-07-10T07:47:07Z</time>
      </trkpt>
      <trkpt lat="43.22632" lon="-6.84218">
        <ele>476.8</ele>
        <time>2016-07-10T07:47:14Z</time>
      </trkpt>
      <trkpt lat="43.22637" lon="-6.84208">
        <ele>477</ele>
        <time>2016-07-10T07:47:21Z</time>
      </trkpt>
      <trkpt lat="43.22644" lon="-6.84197">
        <ele>477.1</ele>
        <time>2016-07-10T07:47:29Z</time>
      </trkpt>
      <trkpt lat="43.22652" lon="-6.84189">
        <ele>477.5</ele>
        <time>2016-07-10T07:47:38Z</time>
      </trkpt>
      <trkpt lat="43.22659" lon="-6.84182">
        <ele>478</ele>
        <time>2016-07-10T07:47:48Z</time>
      </trkpt>
      <trkpt lat="43.22667" lon="-6.84173">
        <ele>478.2</ele>
        <time>2016-07-10T07:47:58Z</time>
      </trkpt>
      <trkpt lat="43.22672" lon="-6.84163">
        <ele>478.4</ele>
        <time>2016-07-10T07:48:06Z</time>
      </trkpt>
      <trkpt lat="43.22678" lon="-6.84153">
        <ele>479.3</ele>
        <time>2016-07-10T07:48:14Z</time>
      </trkpt>
      <trkpt lat="43.22685" lon="-6.84144">
        <ele>480.3</ele>
        <time>2016-07-10T07:48:22Z</time>
      </trkpt>
      <trkpt lat="43.2269" lon="-6.84134">
        <ele>481.2</ele>
        <time>2016-07-10T07:48:30Z</time>
      </trkpt>
      <trkpt lat="43.22696" lon="-6.84124">
        <ele>482</ele>
        <time>2016-07-10T07:48:39Z</time>
      </trkpt>
      <trkpt lat="43.22701" lon="-6.84114">
        <ele>483.1</ele>
        <time>2016-07-10T07:48:48Z</time>
      </trkpt>
      <trkpt lat="43.22705" lon="-6.84102">
        <ele>484</ele>
        <time>2016-07-10T07:48:57Z</time>
      </trkpt>
      <trkpt lat="43.22708" lon="-6.8409">
        <ele>485.1</ele>
        <time>2016-07-10T07:49:15Z</time>
      </trkpt>
      <trkpt lat="43.22711" lon="-6.84077">
        <ele>485.6</ele>
        <time>2016-07-10T07:49:24Z</time>
      </trkpt>
      <trkpt lat="43.22712" lon="-6.84065">
        <ele>486.1</ele>
        <time>2016-07-10T07:49:31Z</time>
      </trkpt>
      <trkpt lat="43.22715" lon="-6.84052">
        <ele>486.8</ele>
        <time>2016-07-10T07:49:39Z</time>
      </trkpt>
      <trkpt lat="43.22718" lon="-6.8404">
        <ele>487.1</ele>
        <time>2016-07-10T07:49:47Z</time>
      </trkpt>
      <trkpt lat="43.22721" lon="-6.84028">
        <ele>487.5</ele>
        <time>2016-07-10T07:49:55Z</time>
      </trkpt>
      <trkpt lat="43.22724" lon="-6.84016">
        <ele>488</ele>
        <time>2016-07-10T07:50:03Z</time>
      </trkpt>
      <trkpt lat="43.22728" lon="-6.84003">
        <ele>488.5</ele>
        <time>2016-07-10T07:50:13Z</time>
      </trkpt>
      <trkpt lat="43.22735" lon="-6.83994">
        <ele>488.8</ele>
        <time>2016-07-10T07:50:23Z</time>
      </trkpt>
      <trkpt lat="43.22741" lon="-6.83984">
        <ele>489.9</ele>
        <time>2016-07-10T07:50:32Z</time>
      </trkpt>
      <trkpt lat="43.22747" lon="-6.83972">
        <ele>490.4</ele>
        <time>2016-07-10T07:50:41Z</time>
      </trkpt>
      <trkpt lat="43.22753" lon="-6.83961">
        <ele>490.3</ele>
        <time>2016-07-10T07:50:50Z</time>
      </trkpt>
      <trkpt lat="43.22757" lon="-6.83949">
        <ele>490.6</ele>
        <time>2016-07-10T07:50:59Z</time>
      </trkpt>
      <trkpt lat="43.22758" lon="-6.83937">
        <ele>491.1</ele>
        <time>2016-07-10T07:51:06Z</time>
      </trkpt>
      <trkpt lat="43.2276" lon="-6.83925">
        <ele>491.6</ele>
        <time>2016-07-10T07:51:15Z</time>
      </trkpt>
      <trkpt lat="43.22769" lon="-6.83925">
        <ele>490.7</ele>
        <time>2016-07-10T07:51:48Z</time>
      </trkpt>
      <trkpt lat="43.22776" lon="-6.83915">
        <ele>490.1</ele>
        <time>2016-07-10T07:52:07Z</time>
      </trkpt>
      <trkpt lat="43.22782" lon="-6.83906">
        <ele>488.4</ele>
        <time>2016-07-10T07:52:16Z</time>
      </trkpt>
      <trkpt lat="43.22789" lon="-6.83897">
        <ele>486.9</ele>
        <time>2016-07-10T07:52:25Z</time>
      </trkpt>
      <trkpt lat="43.22796" lon="-6.83888">
        <ele>485.7</ele>
        <time>2016-07-10T07:52:33Z</time>
      </trkpt>
      <trkpt lat="43.22805" lon="-6.83885">
        <ele>482.3</ele>
        <time>2016-07-10T07:53:01Z</time>
      </trkpt>
      <trkpt lat="43.22812" lon="-6.83877">
        <ele>481.6</ele>
        <time>2016-07-10T07:53:11Z</time>
      </trkpt>
      <trkpt lat="43.22821" lon="-6.83873">
        <ele>480.3</ele>
        <time>2016-07-10T07:53:21Z</time>
      </trkpt>
      <trkpt lat="43.22831" lon="-6.83871">
        <ele>479.2</ele>
        <time>2016-07-10T07:53:31Z</time>
      </trkpt>
      <trkpt lat="43.2284" lon="-6.83868">
        <ele>477.9</ele>
        <time>2016-07-10T07:53:41Z</time>
      </trkpt>
      <trkpt lat="43.22832" lon="-6.83875">
        <ele>475.4</ele>
        <time>2016-07-10T07:54:00Z</time>
      </trkpt>
      <trkpt lat="43.22824" lon="-6.83882">
        <ele>474.4</ele>
        <time>2016-07-10T07:54:12Z</time>
      </trkpt>
      <trkpt lat="43.22819" lon="-6.83893">
        <ele>473.3</ele>
        <time>2016-07-10T07:54:20Z</time>
      </trkpt>
      <trkpt lat="43.22811" lon="-6.83899">
        <ele>472.5</ele>
        <time>2016-07-10T07:54:26Z</time>
      </trkpt>
      <trkpt lat="43.22803" lon="-6.83904">
        <ele>472.2</ele>
        <time>2016-07-10T07:54:31Z</time>
      </trkpt>
      <trkpt lat="43.22793" lon="-6.8391">
        <ele>472.1</ele>
        <time>2016-07-10T07:54:37Z</time>
      </trkpt>
      <trkpt lat="43.22785" lon="-6.83916">
        <ele>472</ele>
        <time>2016-07-10T07:54:43Z</time>
      </trkpt>
      <trkpt lat="43.22778" lon="-6.83926">
        <ele>472.3</ele>
        <time>2016-07-10T07:54:50Z</time>
      </trkpt>
      <trkpt lat="43.22779" lon="-6.83938">
        <ele>472.6</ele>
        <time>2016-07-10T07:54:56Z</time>
      </trkpt>
      <trkpt lat="43.22785" lon="-6.83948">
        <ele>472.8</ele>
        <time>2016-07-10T07:55:01Z</time>
      </trkpt>
      <trkpt lat="43.22792" lon="-6.83958">
        <ele>473</ele>
        <time>2016-07-10T07:55:06Z</time>
      </trkpt>
      <trkpt lat="43.228" lon="-6.83966">
        <ele>473.2</ele>
        <time>2016-07-10T07:55:10Z</time>
      </trkpt>
      <trkpt lat="43.22807" lon="-6.83974">
        <ele>473.3</ele>
        <time>2016-07-10T07:55:15Z</time>
      </trkpt>
      <trkpt lat="43.22815" lon="-6.83983">
        <ele>473.4</ele>
        <time>2016-07-10T07:55:20Z</time>
      </trkpt>
      <trkpt lat="43.22823" lon="-6.83994">
        <ele>473.6</ele>
        <time>2016-07-10T07:55:26Z</time>
      </trkpt>
      <trkpt lat="43.22829" lon="-6.84003">
        <ele>473.9</ele>
        <time>2016-07-10T07:55:33Z</time>
      </trkpt>
      <trkpt lat="43.22837" lon="-6.84011">
        <ele>474.6</ele>
        <time>2016-07-10T07:55:40Z</time>
      </trkpt>
      <trkpt lat="43.22845" lon="-6.84018">
        <ele>475.1</ele>
        <time>2016-07-10T07:55:46Z</time>
      </trkpt>
      <trkpt lat="43.22853" lon="-6.84025">
        <ele>475.6</ele>
        <time>2016-07-10T07:55:53Z</time>
      </trkpt>
      <trkpt lat="43.22862" lon="-6.84031">
        <ele>475.8</ele>
        <time>2016-07-10T07:56:01Z</time>
      </trkpt>
      <trkpt lat="43.22867" lon="-6.84042">
        <ele>476.4</ele>
        <time>2016-07-10T07:56:11Z</time>
      </trkpt>
      <trkpt lat="43.22867" lon="-6.84055">
        <ele>477.2</ele>
        <time>2016-07-10T07:56:20Z</time>
      </trkpt>
      <trkpt lat="43.22872" lon="-6.84067">
        <ele>478.1</ele>
        <time>2016-07-10T07:56:32Z</time>
      </trkpt>
      <trkpt lat="43.22876" lon="-6.84079">
        <ele>477.6</ele>
        <time>2016-07-10T07:56:41Z</time>
      </trkpt>
      <trkpt lat="43.22881" lon="-6.84091">
        <ele>477.3</ele>
        <time>2016-07-10T07:56:49Z</time>
      </trkpt>
      <trkpt lat="43.22886" lon="-6.84103">
        <ele>477</ele>
        <time>2016-07-10T07:56:57Z</time>
      </trkpt>
      <trkpt lat="43.22891" lon="-6.84114">
        <ele>476.7</ele>
        <time>2016-07-10T07:57:07Z</time>
      </trkpt>
      <trkpt lat="43.22894" lon="-6.84126">
        <ele>476.9</ele>
        <time>2016-07-10T07:57:15Z</time>
      </trkpt>
      <trkpt lat="43.22897" lon="-6.84138">
        <ele>477.3</ele>
        <time>2016-07-10T07:57:24Z</time>
      </trkpt>
      <trkpt lat="43.22902" lon="-6.84149">
        <ele>477.7</ele>
        <time>2016-07-10T07:57:34Z</time>
      </trkpt>
      <trkpt lat="43.22903" lon="-6.84162">
        <ele>477.9</ele>
        <time>2016-07-10T07:57:43Z</time>
      </trkpt>
      <trkpt lat="43.22902" lon="-6.84175">
        <ele>478.6</ele>
        <time>2016-07-10T07:57:52Z</time>
      </trkpt>
      <trkpt lat="43.22897" lon="-6.84185">
        <ele>479.7</ele>
        <time>2016-07-10T07:59:05Z</time>
      </trkpt>
      <trkpt lat="43.22903" lon="-6.84183">
        <ele>480</ele>
        <time>2016-07-10T08:00:10Z</time>
      </trkpt>
    </trkseg>
  </trk>
</gpx>